PWSweather.com
Personal Weather Stations
Station Observations
VAJNORY
Vajnory, BratislavaSK 83107

VajnoryBratislavaSK 83107

Lat: 48.208, Lon: 17.202

Elevation: 434

Station Type: MeteoPi by eMeteo.sk

https://emeteo.sk/sk/meteostanica/vajnory

Latest ConditionsUpdated 8:47:01 AM GMT+01:01 Thursday, Jul 18, 2019
Currently Today's Max Today's Min Today's Average
Temperature 71.4°F21.9°C 71.8°F22.1°C 59.2°F15.1°C 63.1°F17.3°C
Dew Point 53.0°F11.7°C 60.0°F15.6°C 51.0°F10.6°C 56.5°F13.6°C
Winds 20.6 mph NE33.2 kmh NE 24.8 mph -39.9 kmh - - 20.9 mph 33.6 kmh
Wind Gusts 20.9 mph33.6 kmh 28.6 mph46.0 kmh - -
Humidity 53% 100% 52% 80%
Pressure 29.96 in1014.6 mb 29.96 in1014.6 mb 29.92 in1013.2 mb -
Precipitation - 0.09 in2.3 mm - -
Hour Temp Dew Point Humidity Winds Wind Gusts Pressure Precip Precip Rate Daily Precip Total
08:47 AM 71.4°F21.9°C 53.0°F11.7°C 53% 20.6 mph NE33.2 kmh NE 20.9 mph33.6 kmh 29.96 in1014.6 mb 0.00 in0.0 mm 0.00 in0.0 mm 0.09 in2.3 mm
08:46 AM 71.2°F21.8°C 53.0°F11.7°C 53% 21.1 mph NE34.0 kmh NE 21.7 mph34.9 kmh 29.96 in1014.6 mb 0.00 in0.0 mm 0.00 in0.0 mm 0.09 in2.3 mm
08:45 AM 70.7°F21.5°C 54.0°F12.2°C 56% 20.6 mph NE33.2 kmh NE 21.0 mph33.8 kmh 29.96 in1014.6 mb 0.00 in0.0 mm 0.00 in0.0 mm 0.09 in2.3 mm
08:44 AM 70.5°F21.4°C 55.0°F12.8°C 57% 20.9 mph ESE33.6 kmh ESE 21.4 mph34.4 kmh 29.96 in1014.6 mb 0.00 in0.0 mm 0.00 in0.0 mm 0.09 in2.3 mm
08:43 AM 70.2°F21.2°C 53.0°F11.7°C 56% 20.3 mph NW32.7 kmh NW 20.6 mph33.2 kmh 29.96 in1014.6 mb 0.00 in0.0 mm 0.00 in0.0 mm 0.09 in2.3 mm
08:42 AM 70.0°F21.1°C 54.0°F12.2°C 56% 20.2 mph SSW32.5 kmh SSW 20.3 mph32.7 kmh 29.96 in1014.6 mb 0.00 in0.0 mm 0.00 in0.0 mm 0.09 in2.3 mm
08:41 AM 70.2°F21.2°C 54.0°F12.2°C 57% 21.4 mph NE34.4 kmh NE 22.2 mph35.7 kmh 29.96 in1014.6 mb 0.00 in0.0 mm 0.00 in0.0 mm 0.09 in2.3 mm
08:40 AM 70.5°F21.4°C 54.0°F12.2°C 56% 21.0 mph SE33.8 kmh SE 21.7 mph34.9 kmh 29.96 in1014.6 mb 0.00 in0.0 mm 0.00 in0.0 mm 0.09 in2.3 mm
08:39 AM 70.5°F21.4°C 54.0°F12.2°C 55% 21.1 mph NNE34.0 kmh NNE 21.6 mph34.8 kmh 29.96 in1014.6 mb 0.00 in0.0 mm 0.00 in0.0 mm 0.09 in2.3 mm
08:38 AM 70.7°F21.5°C 54.0°F12.2°C 56% 21.6 mph ENE34.8 kmh ENE 22.6 mph36.4 kmh 29.96 in1014.6 mb 0.00 in0.0 mm 0.00 in0.0 mm 0.09 in2.3 mm
08:37 AM 70.5°F21.4°C 54.0°F12.2°C 55% 20.4 mph S32.8 kmh S 20.8 mph33.5 kmh 29.96 in1014.6 mb 0.00 in0.0 mm 0.00 in0.0 mm 0.09 in2.3 mm
08:36 AM 70.0°F21.1°C 53.0°F11.7°C 55% 20.5 mph S33.0 kmh S 20.9 mph33.6 kmh 29.96 in1014.6 mb 0.00 in0.0 mm 0.00 in0.0 mm 0.09 in2.3 mm
08:35 AM 70.0°F21.1°C 54.0°F12.2°C 57% 21.1 mph S34.0 kmh S 21.7 mph34.9 kmh 29.96 in1014.6 mb 0.00 in0.0 mm 0.00 in0.0 mm 0.09 in2.3 mm
08:34 AM 70.2°F21.2°C 53.0°F11.7°C 55% 20.5 mph S33.0 kmh S 20.8 mph33.5 kmh 29.96 in1014.6 mb 0.00 in0.0 mm 0.00 in0.0 mm 0.09 in2.3 mm
08:33 AM 70.3°F21.3°C 53.0°F11.7°C 55% 21.5 mph S34.6 kmh S 22.3 mph35.9 kmh 29.96 in1014.6 mb 0.00 in0.0 mm 0.00 in0.0 mm 0.09 in2.3 mm
08:32 AM 70.9°F21.6°C 53.0°F11.7°C 54% 21.8 mph SSW35.1 kmh SSW 22.8 mph36.7 kmh 29.96 in1014.6 mb 0.00 in0.0 mm 0.00 in0.0 mm 0.09 in2.3 mm
08:31 AM 70.9°F21.6°C 54.0°F12.2°C 55% 20.4 mph NW32.8 kmh NW 20.6 mph33.2 kmh 29.95 in1014.2 mb 0.00 in0.0 mm 0.00 in0.0 mm 0.09 in2.3 mm
08:30 AM 70.9°F21.6°C 53.0°F11.7°C 53% 21.2 mph WSW34.1 kmh WSW 22.1 mph35.6 kmh 29.95 in1014.2 mb 0.00 in0.0 mm 0.00 in0.0 mm 0.09 in2.3 mm
08:29 AM 71.8°F22.1°C 53.0°F11.7°C 52% 21.3 mph SE34.3 kmh SE 22.1 mph35.6 kmh 29.95 in1014.2 mb 0.00 in0.0 mm 0.00 in0.0 mm 0.09 in2.3 mm
08:28 AM 71.8°F22.1°C 55.0°F12.8°C 56% 21.0 mph S33.8 kmh S 21.6 mph34.8 kmh 29.95 in1014.2 mb 0.00 in0.0 mm 0.00 in0.0 mm 0.09 in2.3 mm
08:27 AM 71.1°F21.7°C 55.0°F12.8°C 57% 20.5 mph N33.0 kmh N 20.9 mph33.6 kmh 29.95 in1014.2 mb 0.00 in0.0 mm 0.00 in0.0 mm 0.09 in2.3 mm
08:26 AM 70.9°F21.6°C 52.0°F11.1°C 52% 20.9 mph N33.6 kmh N 21.5 mph34.6 kmh 29.95 in1014.2 mb 0.00 in0.0 mm 0.00 in0.0 mm 0.09 in2.3 mm
08:25 AM 70.3°F21.3°C 52.0°F11.1°C 53% 20.4 mph SE32.8 kmh SE 20.7 mph33.3 kmh 29.95 in1014.2 mb 0.00 in0.0 mm 0.00 in0.0 mm 0.09 in2.3 mm
08:24 AM 70.3°F21.3°C 53.0°F11.7°C 55% 21.0 mph E33.8 kmh E 21.7 mph34.9 kmh 29.95 in1014.2 mb 0.00 in0.0 mm 0.00 in0.0 mm 0.09 in2.3 mm
08:23 AM 70.5°F21.4°C 53.0°F11.7°C 54% 21.1 mph SW34.0 kmh SW 21.8 mph35.1 kmh 29.95 in1014.2 mb 0.00 in0.0 mm 0.00 in0.0 mm 0.09 in2.3 mm
08:22 AM 70.7°F21.5°C 52.0°F11.1°C 52% 21.5 mph W34.6 kmh W 22.4 mph36.0 kmh 29.95 in1014.2 mb 0.00 in0.0 mm 0.00 in0.0 mm 0.09 in2.3 mm
08:21 AM 70.5°F21.4°C 53.0°F11.7°C 55% 22.2 mph WNW35.7 kmh WNW 23.5 mph37.8 kmh 29.95 in1014.2 mb 0.00 in0.0 mm 0.00 in0.0 mm 0.09 in2.3 mm
08:20 AM 70.3°F21.3°C 54.0°F12.2°C 56% 21.0 mph W33.8 kmh W 21.7 mph34.9 kmh 29.95 in1014.2 mb 0.00 in0.0 mm 0.00 in0.0 mm 0.09 in2.3 mm
08:19 AM 70.2°F21.2°C 53.0°F11.7°C 55% 20.1 mph W32.3 kmh W 20.2 mph32.5 kmh 29.95 in1014.2 mb 0.01 in0.3 mm 0.00 in0.0 mm 0.09 in2.3 mm
08:18 AM 70.3°F21.3°C 53.0°F11.7°C 55% 21.6 mph WSW34.8 kmh WSW 22.5 mph36.2 kmh 29.95 in1014.2 mb 0.01 in0.3 mm 0.00 in0.0 mm 0.09 in2.3 mm
08:17 AM 70.3°F21.3°C 54.0°F12.2°C 56% 22.7 mph W36.5 kmh W 24.2 mph38.9 kmh 29.95 in1014.2 mb 0.01 in0.3 mm 0.00 in0.0 mm 0.09 in2.3 mm
08:16 AM 70.2°F21.2°C 55.0°F12.8°C 58% 20.7 mph W33.3 kmh W 21.1 mph34.0 kmh 29.95 in1014.2 mb 0.01 in0.3 mm 0.00 in0.0 mm 0.09 in2.3 mm
08:15 AM 70.0°F21.1°C 54.0°F12.2°C 56% 22.4 mph WNW36.0 kmh WNW 23.8 mph38.3 kmh 29.95 in1014.2 mb 0.01 in0.3 mm 0.00 in0.0 mm 0.09 in2.3 mm
08:14 AM 69.8°F21.0°C 56.0°F13.3°C 62% 22.5 mph SSW36.2 kmh SSW 24.1 mph38.8 kmh 29.95 in1014.2 mb 0.01 in0.3 mm 0.00 in0.0 mm 0.09 in2.3 mm
08:13 AM 69.4°F20.8°C 56.0°F13.3°C 63% 21.9 mph E35.2 kmh E 23.1 mph37.2 kmh 29.95 in1014.2 mb 0.01 in0.3 mm 0.00 in0.0 mm 0.09 in2.3 mm
08:12 AM 69.3°F20.7°C 54.0°F12.2°C 59% 22.1 mph SSW35.6 kmh SSW 23.4 mph37.7 kmh 29.95 in1014.2 mb 0.01 in0.3 mm 0.00 in0.0 mm 0.09 in2.3 mm
08:11 AM 69.3°F20.7°C 52.0°F11.1°C 55% 21.5 mph SSW34.6 kmh SSW 22.6 mph36.4 kmh 29.95 in1014.2 mb 0.01 in0.3 mm 0.00 in0.0 mm 0.09 in2.3 mm
08:10 AM 69.1°F20.6°C 52.0°F11.1°C 55% 21.0 mph SE33.8 kmh SE 21.6 mph34.8 kmh 29.95 in1014.2 mb 0.01 in0.3 mm 0.00 in0.0 mm 0.09 in2.3 mm
08:09 AM 69.1°F20.6°C 53.0°F11.7°C 56% 22.2 mph S35.7 kmh S 23.7 mph38.1 kmh 29.95 in1014.2 mb 0.01 in0.3 mm 0.00 in0.0 mm 0.09 in2.3 mm
08:08 AM 69.4°F20.8°C 51.0°F10.6°C 53% 21.4 mph SW34.4 kmh SW 22.1 mph35.6 kmh 29.95 in1014.2 mb 0.01 in0.3 mm 0.00 in0.0 mm 0.09 in2.3 mm
08:07 AM 69.6°F20.9°C 52.0°F11.1°C 54% 22.1 mph WSW35.6 kmh WSW 23.2 mph37.3 kmh 29.95 in1014.2 mb 0.01 in0.3 mm 0.00 in0.0 mm 0.09 in2.3 mm
08:06 AM 69.4°F20.8°C 54.0°F12.2°C 57% 22.6 mph WSW36.4 kmh WSW 24.1 mph38.8 kmh 29.95 in1014.2 mb 0.01 in0.3 mm 0.00 in0.0 mm 0.09 in2.3 mm
08:05 AM 69.8°F21.0°C 53.0°F11.7°C 54% 22.1 mph WSW35.6 kmh WSW 23.4 mph37.7 kmh 29.95 in1014.2 mb 0.01 in0.3 mm 0.00 in0.0 mm 0.09 in2.3 mm
08:04 AM 69.8°F21.0°C 54.0°F12.2°C 58% 21.5 mph W34.6 kmh W 22.5 mph36.2 kmh 29.95 in1014.2 mb 0.01 in0.3 mm 0.00 in0.0 mm 0.09 in2.3 mm
08:03 AM 69.8°F21.0°C 54.0°F12.2°C 57% 22.9 mph NW36.9 kmh NW 24.4 mph39.3 kmh 29.95 in1014.2 mb 0.01 in0.3 mm 0.00 in0.0 mm 0.09 in2.3 mm
08:02 AM 69.6°F20.9°C 55.0°F12.8°C 59% 22.2 mph WSW35.7 kmh WSW 23.5 mph37.8 kmh 29.95 in1014.2 mb 0.01 in0.3 mm 0.00 in0.0 mm 0.09 in2.3 mm
08:01 AM 69.3°F20.7°C 56.0°F13.3°C 62% 22.7 mph SW36.5 kmh SW 24.3 mph39.1 kmh 29.95 in1014.2 mb 0.01 in0.3 mm 0.00 in0.0 mm 0.09 in2.3 mm
08:00 AM 69.3°F20.7°C 55.0°F12.8°C 62% 20.5 mph SE33.0 kmh SE 20.9 mph33.6 kmh 29.95 in1014.2 mb 0.01 in0.3 mm 0.00 in0.0 mm 0.09 in2.3 mm
07:59 AM 69.6°F20.9°C 54.0°F12.2°C 58% 20.7 mph SE33.3 kmh SE 21.2 mph34.1 kmh 29.95 in1014.2 mb 0.01 in0.3 mm 0.00 in0.0 mm 0.09 in2.3 mm
07:58 AM 69.4°F20.8°C 54.0°F12.2°C 58% 19.9 mph NNW32.0 kmh NNW 19.9 mph32.0 kmh 29.95 in1014.2 mb 0.01 in0.3 mm 0.00 in0.0 mm 0.09 in2.3 mm
07:57 AM 69.3°F20.7°C 54.0°F12.2°C 58% 20.0 mph W32.2 kmh W 20.0 mph32.2 kmh 29.95 in1014.2 mb 0.01 in0.3 mm 0.00 in0.0 mm 0.09 in2.3 mm
07:56 AM 69.3°F20.7°C 53.0°F11.7°C 57% 20.1 mph NW32.3 kmh NW 20.2 mph32.5 kmh 29.95 in1014.2 mb 0.01 in0.3 mm 0.00 in0.0 mm 0.09 in2.3 mm
07:55 AM 69.1°F20.6°C 55.0°F12.8°C 60% 21.3 mph ENE34.3 kmh ENE 22.1 mph35.6 kmh 29.95 in1014.2 mb 0.01 in0.3 mm 0.00 in0.0 mm 0.09 in2.3 mm
07:54 AM 69.1°F20.6°C 55.0°F12.8°C 62% 21.1 mph NE34.0 kmh NE 21.8 mph35.1 kmh 29.95 in1014.2 mb 0.01 in0.3 mm 0.00 in0.0 mm 0.09 in2.3 mm
07:53 AM 68.7°F20.4°C 55.0°F12.8°C 63% 21.7 mph SSW34.9 kmh SSW 22.7 mph36.5 kmh 29.95 in1014.2 mb 0.01 in0.3 mm 0.00 in0.0 mm 0.09 in2.3 mm
07:52 AM 68.4°F20.2°C 57.0°F13.9°C 66% 20.9 mph E33.6 kmh E 21.4 mph34.4 kmh 29.95 in1014.2 mb 0.01 in0.3 mm 0.00 in0.0 mm 0.09 in2.3 mm
07:51 AM 68.2°F20.1°C 56.0°F13.3°C 66% 20.7 mph E33.3 kmh E 21.2 mph34.1 kmh 29.95 in1014.2 mb 0.01 in0.3 mm 0.00 in0.0 mm 0.09 in2.3 mm
07:50 AM 68.2°F20.1°C 55.0°F12.8°C 62% 20.2 mph SSE32.5 kmh SSE 20.3 mph32.7 kmh 29.95 in1014.2 mb 0.01 in0.3 mm 0.00 in0.0 mm 0.09 in2.3 mm
07:49 AM 68.0°F20.0°C 55.0°F12.8°C 63% 20.8 mph NE33.5 kmh NE 21.4 mph34.4 kmh 29.95 in1014.2 mb 0.01 in0.3 mm 0.00 in0.0 mm 0.09 in2.3 mm
07:48 AM 67.8°F19.9°C 57.0°F13.9°C 68% 20.0 mph SE32.2 kmh SE 20.0 mph32.2 kmh 29.95 in1014.2 mb 0.01 in0.3 mm 0.00 in0.0 mm 0.09 in2.3 mm
07:47 AM 67.5°F19.7°C 55.0°F12.8°C 65% 20.4 mph E32.8 kmh E 20.7 mph33.3 kmh 29.95 in1014.2 mb 0.01 in0.3 mm 0.00 in0.0 mm 0.09 in2.3 mm
07:46 AM 67.6°F19.8°C 55.0°F12.8°C 64% 20.8 mph NE33.5 kmh NE 21.4 mph34.4 kmh 29.96 in1014.6 mb 0.01 in0.3 mm 0.00 in0.0 mm 0.09 in2.3 mm
07:45 AM 67.6°F19.8°C 55.0°F12.8°C 65% 21.2 mph NE34.1 kmh NE 21.9 mph35.2 kmh 29.96 in1014.6 mb 0.01 in0.3 mm 0.00 in0.0 mm 0.09 in2.3 mm
07:44 AM 67.8°F19.9°C 55.0°F12.8°C 64% 20.5 mph NE33.0 kmh NE 20.8 mph33.5 kmh 29.95 in1014.2 mb 0.01 in0.3 mm 0.00 in0.0 mm 0.09 in2.3 mm
07:43 AM 68.2°F20.1°C 55.0°F12.8°C 64% 20.9 mph NE33.6 kmh NE 21.5 mph34.6 kmh 29.95 in1014.2 mb 0.01 in0.3 mm 0.00 in0.0 mm 0.09 in2.3 mm
07:42 AM 68.2°F20.1°C 57.0°F13.9°C 68% 20.7 mph NE33.3 kmh NE 21.2 mph34.1 kmh 29.95 in1014.2 mb 0.01 in0.3 mm 0.00 in0.0 mm 0.09 in2.3 mm
07:41 AM 67.8°F19.9°C 57.0°F13.9°C 69% 20.8 mph NE33.5 kmh NE 21.3 mph34.3 kmh 29.95 in1014.2 mb 0.01 in0.3 mm 0.00 in0.0 mm 0.09 in2.3 mm
07:40 AM 67.5°F19.7°C 56.0°F13.3°C 68% 21.3 mph NNE34.3 kmh NNE 22.0 mph35.4 kmh 29.95 in1014.2 mb 0.01 in0.3 mm 0.00 in0.0 mm 0.09 in2.3 mm
07:39 AM 67.1°F19.5°C 56.0°F13.3°C 67% 20.4 mph NNE32.8 kmh NNE 20.6 mph33.2 kmh 29.95 in1014.2 mb 0.01 in0.3 mm 0.00 in0.0 mm 0.09 in2.3 mm
07:38 AM 66.7°F19.3°C 56.0°F13.3°C 67% 20.2 mph E32.5 kmh E 20.4 mph32.8 kmh 29.95 in1014.2 mb 0.01 in0.3 mm 0.00 in0.0 mm 0.09 in2.3 mm
07:37 AM 66.6°F19.2°C 55.0°F12.8°C 66% 20.2 mph SSW32.5 kmh SSW 20.3 mph32.7 kmh 29.95 in1014.2 mb 0.01 in0.3 mm 0.00 in0.0 mm 0.09 in2.3 mm
07:36 AM 66.4°F19.1°C 56.0°F13.3°C 69% 20.6 mph ENE33.2 kmh ENE 20.9 mph33.6 kmh 29.95 in1014.2 mb 0.01 in0.3 mm 0.00 in0.0 mm 0.09 in2.3 mm
07:35 AM 66.4°F19.1°C 56.0°F13.3°C 69% 20.6 mph NE33.2 kmh NE 21.1 mph34.0 kmh 29.95 in1014.2 mb 0.01 in0.3 mm 0.00 in0.0 mm 0.09 in2.3 mm
07:34 AM 66.0°F18.9°C 56.0°F13.3°C 70% 20.7 mph NE33.3 kmh NE 21.1 mph34.0 kmh 29.95 in1014.2 mb 0.01 in0.3 mm 0.00 in0.0 mm 0.09 in2.3 mm
07:33 AM 66.0°F18.9°C 55.0°F12.8°C 67% 20.9 mph NE33.6 kmh NE 21.4 mph34.4 kmh 29.95 in1014.2 mb 0.01 in0.3 mm 0.00 in0.0 mm 0.09 in2.3 mm
07:32 AM 66.2°F19.0°C 56.0°F13.3°C 69% 20.4 mph NE32.8 kmh NE 20.7 mph33.3 kmh 29.95 in1014.2 mb 0.01 in0.3 mm 0.00 in0.0 mm 0.09 in2.3 mm
07:31 AM 66.4°F19.1°C 56.0°F13.3°C 69% 20.6 mph NE33.2 kmh NE 21.0 mph33.8 kmh 29.95 in1014.2 mb 0.01 in0.3 mm 0.00 in0.0 mm 0.09 in2.3 mm
07:30 AM 66.6°F19.2°C 56.0°F13.3°C 68% 20.5 mph E33.0 kmh E 20.9 mph33.6 kmh 29.96 in1014.6 mb 0.01 in0.3 mm 0.00 in0.0 mm 0.09 in2.3 mm
07:29 AM 66.6°F19.2°C 55.0°F12.8°C 67% 20.2 mph E32.5 kmh E 20.4 mph32.8 kmh 29.96 in1014.6 mb 0.01 in0.3 mm 0.00 in0.0 mm 0.09 in2.3 mm
07:28 AM 66.6°F19.2°C 56.0°F13.3°C 70% 20.7 mph SE33.3 kmh SE 21.2 mph34.1 kmh 29.96 in1014.6 mb 0.01 in0.3 mm 0.00 in0.0 mm 0.09 in2.3 mm
07:27 AM 66.6°F19.2°C 57.0°F13.9°C 73% 22.0 mph SE35.4 kmh SE 23.3 mph37.5 kmh 29.96 in1014.6 mb 0.01 in0.3 mm 0.00 in0.0 mm 0.09 in2.3 mm
07:26 AM 66.4°F19.1°C 58.0°F14.4°C 74% 20.6 mph E33.2 kmh E 21.1 mph34.0 kmh 29.96 in1014.6 mb 0.01 in0.3 mm 0.00 in0.0 mm 0.09 in2.3 mm
07:25 AM 66.6°F19.2°C 56.0°F13.3°C 69% 21.2 mph NE34.1 kmh NE 21.9 mph35.2 kmh 29.96 in1014.6 mb 0.01 in0.3 mm 0.00 in0.0 mm 0.09 in2.3 mm
07:24 AM 66.2°F19.0°C 57.0°F13.9°C 72% 20.5 mph E33.0 kmh E 20.9 mph33.6 kmh 29.95 in1014.2 mb 0.01 in0.3 mm 0.00 in0.0 mm 0.09 in2.3 mm
07:23 AM 66.2°F19.0°C 57.0°F13.9°C 73% 20.1 mph E32.3 kmh E 20.2 mph32.5 kmh 29.96 in1014.6 mb 0.01 in0.3 mm 0.00 in0.0 mm 0.09 in2.3 mm
07:22 AM 65.8°F18.8°C 56.0°F13.3°C 72% 19.9 mph E32.0 kmh E 19.9 mph32.0 kmh 29.95 in1014.2 mb 0.01 in0.3 mm 0.00 in0.0 mm 0.09 in2.3 mm
07:21 AM 65.8°F18.8°C 56.0°F13.3°C 71% 19.9 mph E32.0 kmh E 19.9 mph32.0 kmh 29.96 in1014.6 mb 0.01 in0.3 mm 0.60 in15.2 mm 0.09 in2.3 mm
07:20 AM 66.0°F18.9°C 58.0°F14.4°C 75% 20.8 mph E33.5 kmh E 21.3 mph34.3 kmh 29.96 in1014.6 mb 0.00 in0.0 mm 0.00 in0.0 mm 0.08 in2.0 mm
07:19 AM 66.0°F18.9°C 57.0°F13.9°C 74% 20.6 mph E33.2 kmh E 20.9 mph33.6 kmh 29.96 in1014.6 mb 0.00 in0.0 mm 0.00 in0.0 mm 0.08 in2.0 mm
07:18 AM 66.4°F19.1°C 57.0°F13.9°C 72% 21.0 mph E33.8 kmh E 21.6 mph34.8 kmh 29.96 in1014.6 mb 0.00 in0.0 mm 0.00 in0.0 mm 0.08 in2.0 mm
07:17 AM 66.4°F19.1°C 57.0°F13.9°C 72% 20.9 mph E33.6 kmh E 21.5 mph34.6 kmh 29.96 in1014.6 mb 0.00 in0.0 mm 0.00 in0.0 mm 0.08 in2.0 mm
07:16 AM 66.6°F19.2°C 59.0°F15.0°C 76% 20.8 mph E33.5 kmh E 21.3 mph34.3 kmh 29.96 in1014.6 mb 0.00 in0.0 mm 0.00 in0.0 mm 0.08 in2.0 mm
07:15 AM 66.4°F19.1°C 57.0°F13.9°C 72% 21.3 mph E34.3 kmh E 22.2 mph35.7 kmh 29.95 in1014.2 mb 0.00 in0.0 mm 0.00 in0.0 mm 0.08 in2.0 mm
07:14 AM 66.2°F19.0°C 57.0°F13.9°C 73% 20.3 mph SSE32.7 kmh SSE 20.5 mph33.0 kmh 29.96 in1014.6 mb 0.00 in0.0 mm 0.00 in0.0 mm 0.08 in2.0 mm
07:13 AM 65.8°F18.8°C 58.0°F14.4°C 75% 20.3 mph SSE32.7 kmh SSE 20.6 mph33.2 kmh 29.96 in1014.6 mb 0.00 in0.0 mm 0.00 in0.0 mm 0.08 in2.0 mm
07:12 AM 65.8°F18.8°C 58.0°F14.4°C 77% 19.9 mph ESE32.0 kmh ESE 19.9 mph32.0 kmh 29.95 in1014.2 mb 0.00 in0.0 mm 0.00 in0.0 mm 0.08 in2.0 mm
07:11 AM 65.5°F18.6°C 57.0°F13.9°C 75% 20.0 mph E32.2 kmh E 20.0 mph32.2 kmh 29.96 in1014.6 mb 0.00 in0.0 mm 0.00 in0.0 mm 0.08 in2.0 mm
07:10 AM 65.7°F18.7°C 57.0°F13.9°C 73% 20.6 mph E33.2 kmh E 20.9 mph33.6 kmh 29.95 in1014.2 mb 0.02 in0.5 mm 0.00 in0.0 mm 0.08 in2.0 mm
07:09 AM 65.7°F18.7°C 57.0°F13.9°C 74% 21.9 mph E35.2 kmh E 22.9 mph36.9 kmh 29.96 in1014.6 mb 0.02 in0.5 mm 0.00 in0.0 mm 0.08 in2.0 mm
07:08 AM 65.7°F18.7°C 59.0°F15.0°C 80% 21.3 mph NNE34.3 kmh NNE 22.0 mph35.4 kmh 29.96 in1014.6 mb 0.02 in0.5 mm 0.00 in0.0 mm 0.08 in2.0 mm
07:07 AM 65.5°F18.6°C 59.0°F15.0°C 80% 20.6 mph E33.2 kmh E 20.9 mph33.6 kmh 29.96 in1014.6 mb 0.02 in0.5 mm 0.00 in0.0 mm 0.08 in2.0 mm
07:06 AM 65.7°F18.7°C 58.0°F14.4°C 77% 20.4 mph 32.8 kmh 20.6 mph33.2 kmh 29.96 in1014.6 mb 0.02 in0.5 mm 0.00 in0.0 mm 0.08 in2.0 mm
07:05 AM 65.5°F18.6°C 58.0°F14.4°C 78% 21.1 mph NE34.0 kmh NE 21.8 mph35.1 kmh 29.96 in1014.6 mb 0.02 in0.5 mm 0.00 in0.0 mm 0.08 in2.0 mm
07:04 AM 65.8°F18.8°C 58.0°F14.4°C 77% 20.6 mph NNE33.2 kmh NNE 21.1 mph34.0 kmh 29.96 in1014.6 mb 0.02 in0.5 mm 0.00 in0.0 mm 0.08 in2.0 mm
07:03 AM 65.8°F18.8°C 58.0°F14.4°C 77% 20.5 mph NNE33.0 kmh NNE 20.7 mph33.3 kmh 29.96 in1014.6 mb 0.02 in0.5 mm 0.00 in0.0 mm 0.08 in2.0 mm
07:02 AM 65.8°F18.8°C 59.0°F15.0°C 78% 20.6 mph NE33.2 kmh NE 20.9 mph33.6 kmh 29.96 in1014.6 mb 0.02 in0.5 mm 0.00 in0.0 mm 0.08 in2.0 mm
07:01 AM 65.8°F18.8°C 57.0°F13.9°C 73% 20.0 mph NE32.2 kmh NE 20.0 mph32.2 kmh 29.96 in1014.6 mb 0.02 in0.5 mm 0.00 in0.0 mm 0.08 in2.0 mm
07:00 AM 65.7°F18.7°C 58.0°F14.4°C 78% 20.0 mph NE32.2 kmh NE 20.1 mph32.3 kmh 29.96 in1014.6 mb 0.02 in0.5 mm 0.00 in0.0 mm 0.08 in2.0 mm
06:59 AM 65.5°F18.6°C 59.0°F15.0°C 80% 20.6 mph NE33.2 kmh NE 21.0 mph33.8 kmh 29.96 in1014.6 mb 0.02 in0.5 mm 0.00 in0.0 mm 0.08 in2.0 mm
06:58 AM 65.3°F18.5°C 59.0°F15.0°C 81% 21.2 mph NE34.1 kmh NE 22.0 mph35.4 kmh 29.96 in1014.6 mb 0.02 in0.5 mm 0.00 in0.0 mm 0.08 in2.0 mm
06:57 AM 65.3°F18.5°C 60.0°F15.6°C 83% 20.2 mph NE32.5 kmh NE 20.4 mph32.8 kmh 29.96 in1014.6 mb 0.02 in0.5 mm 0.00 in0.0 mm 0.08 in2.0 mm
06:56 AM 65.3°F18.5°C 60.0°F15.6°C 82% 19.9 mph SE32.0 kmh SE 19.9 mph32.0 kmh 29.95 in1014.2 mb 0.02 in0.5 mm 0.00 in0.0 mm 0.08 in2.0 mm
06:55 AM 65.3°F18.5°C 59.0°F15.0°C 80% 19.9 mph SSW32.0 kmh SSW 19.9 mph32.0 kmh 29.96 in1014.6 mb 0.02 in0.5 mm 0.00 in0.0 mm 0.08 in2.0 mm
06:54 AM 65.5°F18.6°C 58.0°F14.4°C 78% 20.0 mph SE32.2 kmh SE 20.0 mph32.2 kmh 29.96 in1014.6 mb 0.02 in0.5 mm 0.00 in0.0 mm 0.08 in2.0 mm
06:53 AM 65.3°F18.5°C 59.0°F15.0°C 81% 20.2 mph SSW32.5 kmh SSW 20.3 mph32.7 kmh 29.96 in1014.6 mb 0.02 in0.5 mm 0.00 in0.0 mm 0.08 in2.0 mm
06:52 AM 65.3°F18.5°C 60.0°F15.6°C 82% 20.2 mph NE32.5 kmh NE 20.3 mph32.7 kmh 29.96 in1014.6 mb 0.02 in0.5 mm 0.00 in0.0 mm 0.08 in2.0 mm
06:51 AM 65.5°F18.6°C 59.0°F15.0°C 79% 19.9 mph 32.0 kmh 19.9 mph32.0 kmh 29.96 in1014.6 mb 0.02 in0.5 mm 0.00 in0.0 mm 0.08 in2.0 mm
06:50 AM 65.5°F18.6°C 59.0°F15.0°C 79% 20.1 mph SE32.3 kmh SE 20.2 mph32.5 kmh 29.96 in1014.6 mb 0.02 in0.5 mm 0.00 in0.0 mm 0.08 in2.0 mm
06:49 AM 65.5°F18.6°C 60.0°F15.6°C 84% 20.9 mph N33.6 kmh N 21.5 mph34.6 kmh 29.96 in1014.6 mb 0.02 in0.5 mm 0.00 in0.0 mm 0.08 in2.0 mm
06:48 AM 65.3°F18.5°C 60.0°F15.6°C 82% 20.9 mph NE33.6 kmh NE 21.6 mph34.8 kmh 29.95 in1014.2 mb 0.02 in0.5 mm 0.00 in0.0 mm 0.08 in2.0 mm
06:47 AM 65.5°F18.6°C 59.0°F15.0°C 81% 20.5 mph S33.0 kmh S 20.9 mph33.6 kmh 29.96 in1014.6 mb 0.02 in0.5 mm 0.00 in0.0 mm 0.08 in2.0 mm
06:46 AM 65.5°F18.6°C 60.0°F15.6°C 82% 21.6 mph NW34.8 kmh NW 22.6 mph36.4 kmh 29.96 in1014.6 mb 0.02 in0.5 mm 0.00 in0.0 mm 0.08 in2.0 mm
06:45 AM 65.5°F18.6°C 60.0°F15.6°C 82% 21.4 mph NNE34.4 kmh NNE 22.3 mph35.9 kmh 29.95 in1014.2 mb 0.02 in0.5 mm 0.00 in0.0 mm 0.08 in2.0 mm
06:44 AM 65.5°F18.6°C 60.0°F15.6°C 82% 20.5 mph NNE33.0 kmh NNE 20.8 mph33.5 kmh 29.96 in1014.6 mb 0.02 in0.5 mm 0.00 in0.0 mm 0.08 in2.0 mm
06:43 AM 65.3°F18.5°C 60.0°F15.6°C 82% 21.0 mph NE33.8 kmh NE 21.6 mph34.8 kmh 29.96 in1014.6 mb 0.02 in0.5 mm 0.00 in0.0 mm 0.08 in2.0 mm
06:42 AM 65.3°F18.5°C 59.0°F15.0°C 81% 21.0 mph SSE33.8 kmh SSE 21.6 mph34.8 kmh 29.96 in1014.6 mb 0.02 in0.5 mm 0.00 in0.0 mm 0.08 in2.0 mm
06:41 AM 64.9°F18.3°C 59.0°F15.0°C 82% 21.1 mph S34.0 kmh S 21.7 mph34.9 kmh 29.96 in1014.6 mb 0.02 in0.5 mm 0.00 in0.0 mm 0.08 in2.0 mm
06:40 AM 64.9°F18.3°C 60.0°F15.6°C 83% 21.1 mph NNE34.0 kmh NNE 21.8 mph35.1 kmh 29.96 in1014.6 mb 0.02 in0.5 mm 0.00 in0.0 mm 0.08 in2.0 mm
06:39 AM 64.9°F18.3°C 60.0°F15.6°C 83% 21.1 mph NE34.0 kmh NE 21.9 mph35.2 kmh 29.95 in1014.2 mb 0.02 in0.5 mm 0.00 in0.0 mm 0.08 in2.0 mm
06:38 AM 64.9°F18.3°C 60.0°F15.6°C 83% 20.9 mph NNE33.6 kmh NNE 21.5 mph34.6 kmh 29.95 in1014.2 mb 0.02 in0.5 mm 0.00 in0.0 mm 0.08 in2.0 mm
06:37 AM 64.9°F18.3°C 60.0°F15.6°C 85% 20.7 mph NE33.3 kmh NE 21.2 mph34.1 kmh 29.95 in1014.2 mb 0.02 in0.5 mm 0.00 in0.0 mm 0.08 in2.0 mm
06:36 AM 64.8°F18.2°C 60.0°F15.6°C 85% 21.3 mph E34.3 kmh E 22.2 mph35.7 kmh 29.95 in1014.2 mb 0.02 in0.5 mm 0.00 in0.0 mm 0.08 in2.0 mm
06:35 AM 64.8°F18.2°C 60.0°F15.6°C 85% 21.1 mph N34.0 kmh N 21.8 mph35.1 kmh 29.95 in1014.2 mb 0.02 in0.5 mm 0.00 in0.0 mm 0.08 in2.0 mm
06:34 AM 64.6°F18.1°C 60.0°F15.6°C 84% 20.8 mph N33.5 kmh N 21.3 mph34.3 kmh 29.95 in1014.2 mb 0.02 in0.5 mm 0.00 in0.0 mm 0.08 in2.0 mm
06:33 AM 64.4°F18.0°C 60.0°F15.6°C 85% 20.3 mph NE32.7 kmh NE 20.7 mph33.3 kmh 29.95 in1014.2 mb 0.02 in0.5 mm 0.00 in0.0 mm 0.08 in2.0 mm
06:32 AM 64.2°F17.9°C 60.0°F15.6°C 85% 19.9 mph 32.0 kmh 19.9 mph32.0 kmh 29.95 in1014.2 mb 0.02 in0.5 mm 0.00 in0.0 mm 0.08 in2.0 mm
06:31 AM 64.2°F17.9°C 60.0°F15.6°C 86% 20.1 mph SW32.3 kmh SW 20.1 mph32.3 kmh 29.95 in1014.2 mb 0.02 in0.5 mm 0.00 in0.0 mm 0.08 in2.0 mm
06:30 AM 64.2°F17.9°C 59.0°F15.0°C 84% 20.6 mph SW33.2 kmh SW 21.1 mph34.0 kmh 29.95 in1014.2 mb 0.02 in0.5 mm 0.00 in0.0 mm 0.08 in2.0 mm
06:29 AM 64.2°F17.9°C 59.0°F15.0°C 84% 20.3 mph NW32.7 kmh NW 20.4 mph32.8 kmh 29.95 in1014.2 mb 0.02 in0.5 mm 0.00 in0.0 mm 0.08 in2.0 mm
06:28 AM 64.2°F17.9°C 59.0°F15.0°C 83% 20.4 mph WNW32.8 kmh WNW 20.7 mph33.3 kmh 29.95 in1014.2 mb 0.02 in0.5 mm 0.00 in0.0 mm 0.08 in2.0 mm
06:27 AM 64.2°F17.9°C 59.0°F15.0°C 84% 20.1 mph E32.3 kmh E 20.3 mph32.7 kmh 29.95 in1014.2 mb 0.02 in0.5 mm 0.00 in0.0 mm 0.08 in2.0 mm
06:26 AM 63.7°F17.6°C 59.0°F15.0°C 85% 19.9 mph E32.0 kmh E 19.9 mph32.0 kmh 29.95 in1014.2 mb 0.02 in0.5 mm 0.00 in0.0 mm 0.08 in2.0 mm
06:25 AM 63.5°F17.5°C 59.0°F15.0°C 86% 19.9 mph NE32.0 kmh NE 20.0 mph32.2 kmh 29.95 in1014.2 mb 0.02 in0.5 mm 0.00 in0.0 mm 0.08 in2.0 mm
06:24 AM 63.3°F17.4°C 59.0°F15.0°C 85% 19.9 mph NE32.0 kmh NE 19.9 mph32.0 kmh 29.95 in1014.2 mb 0.02 in0.5 mm 0.00 in0.0 mm 0.08 in2.0 mm
06:23 AM 63.3°F17.4°C 58.0°F14.4°C 84% 19.9 mph NE32.0 kmh NE 19.9 mph32.0 kmh 29.95 in1014.2 mb 0.02 in0.5 mm 0.00 in0.0 mm 0.08 in2.0 mm
06:22 AM 63.3°F17.4°C 59.0°F15.0°C 85% 19.9 mph NE32.0 kmh NE 19.9 mph32.0 kmh 29.95 in1014.2 mb 0.02 in0.5 mm 0.00 in0.0 mm 0.08 in2.0 mm
06:21 AM 63.3°F17.4°C 59.0°F15.0°C 85% 19.9 mph NE32.0 kmh NE 19.9 mph32.0 kmh 29.95 in1014.2 mb 0.02 in0.5 mm 0.00 in0.0 mm 0.08 in2.0 mm
06:20 AM 63.3°F17.4°C 58.0°F14.4°C 84% 20.0 mph NE32.2 kmh NE 20.1 mph32.3 kmh 29.95 in1014.2 mb 0.02 in0.5 mm 0.00 in0.0 mm 0.08 in2.0 mm
06:19 AM 63.1°F17.3°C 59.0°F15.0°C 86% 20.2 mph 32.5 kmh 20.4 mph32.8 kmh 29.95 in1014.2 mb 0.02 in0.5 mm 0.00 in0.0 mm 0.08 in2.0 mm
06:18 AM 63.1°F17.3°C 59.0°F15.0°C 86% 20.4 mph NNE32.8 kmh NNE 20.6 mph33.2 kmh 29.95 in1014.2 mb 0.02 in0.5 mm 0.00 in0.0 mm 0.08 in2.0 mm
06:17 AM 63.3°F17.4°C 60.0°F15.6°C 89% 20.7 mph NNE33.3 kmh NNE 21.2 mph34.1 kmh 29.95 in1014.2 mb 0.02 in0.5 mm 0.00 in0.0 mm 0.08 in2.0 mm
06:16 AM 63.0°F17.2°C 59.0°F15.0°C 87% 20.0 mph ENE32.2 kmh ENE 20.0 mph32.2 kmh 29.94 in1013.9 mb 0.04 in1.0 mm 0.00 in0.0 mm 0.08 in2.0 mm
06:15 AM 63.0°F17.2°C 59.0°F15.0°C 88% 20.4 mph SE32.8 kmh SE 20.8 mph33.5 kmh 29.94 in1013.9 mb 0.05 in1.3 mm 0.00 in0.0 mm 0.08 in2.0 mm
06:14 AM 62.8°F17.1°C 59.0°F15.0°C 89% 21.0 mph SE33.8 kmh SE 21.5 mph34.6 kmh 29.94 in1013.9 mb 0.05 in1.3 mm 0.00 in0.0 mm 0.08 in2.0 mm
06:13 AM 62.8°F17.1°C 59.0°F15.0°C 87% 20.5 mph S33.0 kmh S 20.8 mph33.5 kmh 29.94 in1013.9 mb 0.07 in1.8 mm 0.00 in0.0 mm 0.08 in2.0 mm
06:12 AM 62.8°F17.1°C 58.0°F14.4°C 86% 21.1 mph E34.0 kmh E 23.3 mph37.5 kmh 29.94 in1013.9 mb 0.07 in1.8 mm 1.80 in45.7 mm 0.08 in2.0 mm
06:11 AM 62.8°F17.1°C 59.0°F15.0°C 88% 20.4 mph E32.8 kmh E 20.6 mph33.2 kmh 29.94 in1013.9 mb 0.04 in1.0 mm 0.00 in0.0 mm 0.05 in1.3 mm
06:10 AM 62.6°F17.0°C 59.0°F15.0°C 89% 20.1 mph S32.3 kmh S 20.2 mph32.5 kmh 29.94 in1013.9 mb 0.04 in1.0 mm 0.00 in0.0 mm 0.05 in1.3 mm
06:09 AM 62.4°F16.9°C 59.0°F15.0°C 88% 19.9 mph E32.0 kmh E 19.9 mph32.0 kmh 29.94 in1013.9 mb 0.04 in1.0 mm 0.00 in0.0 mm 0.05 in1.3 mm
06:08 AM 62.2°F16.8°C 59.0°F15.0°C 90% 19.9 mph E32.0 kmh E 19.9 mph32.0 kmh 29.94 in1013.9 mb 0.04 in1.0 mm 0.00 in0.0 mm 0.05 in1.3 mm
06:07 AM 62.2°F16.8°C 60.0°F15.6°C 91% 20.6 mph NE33.2 kmh NE 20.9 mph33.6 kmh 29.94 in1013.9 mb 0.04 in1.0 mm 0.00 in0.0 mm 0.05 in1.3 mm
06:06 AM 62.1°F16.7°C 60.0°F15.6°C 93% 20.8 mph ENE33.5 kmh ENE 21.3 mph34.3 kmh 29.94 in1013.9 mb 0.04 in1.0 mm 0.00 in0.0 mm 0.05 in1.3 mm
06:05 AM 62.1°F16.7°C 60.0°F15.6°C 92% 21.2 mph ENE34.1 kmh ENE 21.9 mph35.2 kmh 29.94 in1013.9 mb 0.04 in1.0 mm 0.00 in0.0 mm 0.05 in1.3 mm
06:04 AM 61.9°F16.6°C 59.0°F15.0°C 91% 20.2 mph ENE32.5 kmh ENE 20.3 mph32.7 kmh 29.94 in1013.9 mb 0.04 in1.0 mm 0.00 in0.0 mm 0.05 in1.3 mm
06:03 AM 61.9°F16.6°C 59.0°F15.0°C 92% 19.9 mph NE32.0 kmh NE 19.9 mph32.0 kmh 29.94 in1013.9 mb 0.04 in1.0 mm 0.00 in0.0 mm 0.05 in1.3 mm
06:02 AM 61.5°F16.4°C 60.0°F15.6°C 95% 19.9 mph 32.0 kmh 19.9 mph32.0 kmh 29.94 in1013.9 mb 0.04 in1.0 mm 0.00 in0.0 mm 0.05 in1.3 mm
06:01 AM 61.2°F16.2°C 60.0°F15.6°C 94% 19.9 mph 32.0 kmh 19.9 mph32.0 kmh 29.94 in1013.9 mb 0.04 in1.0 mm 0.00 in0.0 mm 0.05 in1.3 mm
06:00 AM 61.2°F16.2°C 60.0°F15.6°C 95% 19.9 mph 32.0 kmh 19.9 mph32.0 kmh 29.94 in1013.9 mb 0.04 in1.0 mm 0.00 in0.0 mm 0.05 in1.3 mm
05:59 AM 61.0°F16.1°C 60.0°F15.6°C 96% 19.9 mph 32.0 kmh 19.9 mph32.0 kmh 29.94 in1013.9 mb 0.04 in1.0 mm 0.00 in0.0 mm 0.05 in1.3 mm
05:58 AM 61.2°F16.2°C 60.0°F15.6°C 96% 19.9 mph 32.0 kmh 19.9 mph32.0 kmh 29.94 in1013.9 mb 0.04 in1.0 mm 0.00 in0.0 mm 0.05 in1.3 mm
05:57 AM 60.6°F15.9°C 60.0°F15.6°C 98% 19.9 mph N32.0 kmh N 19.9 mph32.0 kmh 29.94 in1013.9 mb 0.04 in1.0 mm 0.00 in0.0 mm 0.05 in1.3 mm
05:56 AM 60.4°F15.8°C 60.0°F15.6°C 98% 20.0 mph N32.2 kmh N 20.0 mph32.2 kmh 29.94 in1013.9 mb 0.04 in1.0 mm 0.00 in0.0 mm 0.05 in1.3 mm
05:55 AM 60.4°F15.8°C 60.0°F15.6°C 99% 19.9 mph 32.0 kmh 19.9 mph32.0 kmh 29.94 in1013.9 mb 0.04 in1.0 mm 0.00 in0.0 mm 0.05 in1.3 mm
05:54 AM 59.7°F15.4°C 60.0°F15.6°C 100% 20.0 mph 32.2 kmh 20.0 mph32.2 kmh 29.94 in1013.9 mb 0.04 in1.0 mm 0.00 in0.0 mm 0.05 in1.3 mm
05:53 AM 59.5°F15.3°C 60.0°F15.6°C 100% 20.0 mph 32.2 kmh 20.0 mph32.2 kmh 29.94 in1013.9 mb 0.04 in1.0 mm 0.00 in0.0 mm 0.05 in1.3 mm
05:52 AM 59.4°F15.2°C 59.0°F15.0°C 100% 19.9 mph 32.0 kmh 19.9 mph32.0 kmh 29.94 in1013.9 mb 0.04 in1.0 mm 0.00 in0.0 mm 0.05 in1.3 mm
05:51 AM 59.4°F15.2°C 59.0°F15.0°C 100% 19.9 mph 32.0 kmh 19.9 mph32.0 kmh 29.94 in1013.9 mb 0.04 in1.0 mm 0.00 in0.0 mm 0.05 in1.3 mm
05:50 AM 59.4°F15.2°C 59.0°F15.0°C 100% 19.9 mph 32.0 kmh 19.9 mph32.0 kmh 29.94 in1013.9 mb 0.04 in1.0 mm 0.00 in0.0 mm 0.05 in1.3 mm
05:49 AM 59.2°F15.1°C 59.0°F15.0°C 100% 19.9 mph 32.0 kmh 19.9 mph32.0 kmh 29.94 in1013.9 mb 0.04 in1.0 mm 0.00 in0.0 mm 0.05 in1.3 mm
05:48 AM 59.4°F15.2°C 59.0°F15.0°C 100% 20.2 mph 32.5 kmh 20.4 mph32.8 kmh 29.94 in1013.9 mb 0.04 in1.0 mm 0.00 in0.0 mm 0.05 in1.3 mm
05:47 AM 59.2°F15.1°C 59.0°F15.0°C 100% 20.6 mph 33.2 kmh 20.9 mph33.6 kmh 29.94 in1013.9 mb 0.04 in1.0 mm 0.00 in0.0 mm 0.05 in1.3 mm
05:46 AM 59.4°F15.2°C 59.0°F15.0°C 100% 20.6 mph 33.2 kmh 21.0 mph33.8 kmh 29.94 in1013.9 mb 0.04 in1.0 mm 0.00 in0.0 mm 0.05 in1.3 mm
05:45 AM 59.4°F15.2°C 59.0°F15.0°C 100% 20.8 mph 33.5 kmh 21.3 mph34.3 kmh 29.94 in1013.9 mb 0.04 in1.0 mm 0.00 in0.0 mm 0.05 in1.3 mm
05:44 AM 59.4°F15.2°C 59.0°F15.0°C 100% 20.8 mph 33.5 kmh 21.3 mph34.3 kmh 29.94 in1013.9 mb 0.04 in1.0 mm 0.00 in0.0 mm 0.05 in1.3 mm
05:43 AM 59.5°F15.3°C 60.0°F15.6°C 100% 20.8 mph N33.5 kmh N 21.3 mph34.3 kmh 29.94 in1013.9 mb 0.04 in1.0 mm 0.00 in0.0 mm 0.05 in1.3 mm
05:42 AM 59.5°F15.3°C 60.0°F15.6°C 100% 21.5 mph NNE34.6 kmh NNE 22.4 mph36.0 kmh 29.94 in1013.9 mb 0.04 in1.0 mm 0.00 in0.0 mm 0.05 in1.3 mm
05:41 AM 59.7°F15.4°C 60.0°F15.6°C 100% 21.9 mph NNE35.2 kmh NNE 23.1 mph37.2 kmh 29.94 in1013.9 mb 0.04 in1.0 mm 0.00 in0.0 mm 0.05 in1.3 mm
05:40 AM 59.7°F15.4°C 60.0°F15.6°C 100% 21.7 mph NNE34.9 kmh NNE 22.6 mph36.4 kmh 29.94 in1013.9 mb 0.04 in1.0 mm 0.00 in0.0 mm 0.05 in1.3 mm
05:39 AM 59.7°F15.4°C 60.0°F15.6°C 100% 21.8 mph NNE35.1 kmh NNE 22.8 mph36.7 kmh 29.94 in1013.9 mb 0.04 in1.0 mm 0.00 in0.0 mm 0.05 in1.3 mm
05:38 AM 59.7°F15.4°C 60.0°F15.6°C 100% 21.4 mph NNE34.4 kmh NNE 22.2 mph35.7 kmh 29.94 in1013.9 mb 0.04 in1.0 mm 0.00 in0.0 mm 0.05 in1.3 mm
05:37 AM 59.7°F15.4°C 60.0°F15.6°C 100% 21.1 mph NNE34.0 kmh NNE 21.7 mph34.9 kmh 29.94 in1013.9 mb 0.04 in1.0 mm 0.00 in0.0 mm 0.05 in1.3 mm
05:36 AM 59.5°F15.3°C 59.0°F15.0°C 99% 20.7 mph NNE33.3 kmh NNE 21.1 mph34.0 kmh 29.93 in1013.5 mb 0.04 in1.0 mm 0.00 in0.0 mm 0.05 in1.3 mm
05:35 AM 59.7°F15.4°C 59.0°F15.0°C 99% 20.1 mph NE32.3 kmh NE 20.2 mph32.5 kmh 29.93 in1013.5 mb 0.04 in1.0 mm 0.00 in0.0 mm 0.05 in1.3 mm
05:34 AM 59.5°F15.3°C 59.0°F15.0°C 99% 19.9 mph E32.0 kmh E 19.9 mph32.0 kmh 29.93 in1013.5 mb 0.04 in1.0 mm 0.00 in0.0 mm 0.05 in1.3 mm
05:33 AM 59.5°F15.3°C 59.0°F15.0°C 99% 19.9 mph E32.0 kmh E 19.9 mph32.0 kmh 29.93 in1013.5 mb 0.04 in1.0 mm 0.00 in0.0 mm 0.05 in1.3 mm
05:32 AM 59.7°F15.4°C 59.0°F15.0°C 98% 19.9 mph ENE32.0 kmh ENE 19.9 mph32.0 kmh 29.93 in1013.5 mb 0.04 in1.0 mm 0.00 in0.0 mm 0.05 in1.3 mm
05:31 AM 59.5°F15.3°C 59.0°F15.0°C 98% 19.9 mph SE32.0 kmh SE 19.9 mph32.0 kmh 29.93 in1013.5 mb 0.04 in1.0 mm 0.00 in0.0 mm 0.05 in1.3 mm
05:30 AM 59.5°F15.3°C 59.0°F15.0°C 99% 19.9 mph NE32.0 kmh NE 19.9 mph32.0 kmh 29.93 in1013.5 mb 0.04 in1.0 mm 0.00 in0.0 mm 0.05 in1.3 mm
05:29 AM 59.5°F15.3°C 59.0°F15.0°C 99% 19.9 mph 32.0 kmh 19.9 mph32.0 kmh 29.93 in1013.5 mb 0.04 in1.0 mm 0.00 in0.0 mm 0.05 in1.3 mm
05:28 AM 59.7°F15.4°C 59.0°F15.0°C 99% 19.9 mph NNE32.0 kmh NNE 19.9 mph32.0 kmh 29.93 in1013.5 mb 0.04 in1.0 mm 0.00 in0.0 mm 0.05 in1.3 mm
05:27 AM 59.7°F15.4°C 59.0°F15.0°C 98% 19.9 mph ENE32.0 kmh ENE 19.9 mph32.0 kmh 29.93 in1013.5 mb 0.04 in1.0 mm 0.00 in0.0 mm 0.05 in1.3 mm
05:26 AM 59.7°F15.4°C 59.0°F15.0°C 98% 19.9 mph E32.0 kmh E 19.9 mph32.0 kmh 29.93 in1013.5 mb 0.04 in1.0 mm 0.00 in0.0 mm 0.05 in1.3 mm
05:25 AM 59.7°F15.4°C 59.0°F15.0°C 98% 20.0 mph ENE32.2 kmh ENE 20.0 mph32.2 kmh 29.93 in1013.5 mb 0.04 in1.0 mm 0.00 in0.0 mm 0.05 in1.3 mm
05:24 AM 59.7°F15.4°C 59.0°F15.0°C 98% 19.9 mph 32.0 kmh 19.9 mph32.0 kmh 29.94 in1013.9 mb 0.04 in1.0 mm 0.00 in0.0 mm 0.05 in1.3 mm
05:23 AM 59.7°F15.4°C 59.0°F15.0°C 98% 20.1 mph E32.3 kmh E 20.1 mph32.3 kmh 29.93 in1013.5 mb 0.04 in1.0 mm 0.00 in0.0 mm 0.05 in1.3 mm
05:22 AM 59.7°F15.4°C 59.0°F15.0°C 98% 19.9 mph ENE32.0 kmh ENE 19.9 mph32.0 kmh 29.93 in1013.5 mb 0.04 in1.0 mm 0.00 in0.0 mm 0.05 in1.3 mm
05:21 AM 59.7°F15.4°C 59.0°F15.0°C 98% 21.0 mph SE33.8 kmh SE 21.7 mph34.9 kmh 29.93 in1013.5 mb 0.04 in1.0 mm 0.00 in0.0 mm 0.05 in1.3 mm
05:20 AM 59.9°F15.5°C 59.0°F15.0°C 97% 22.2 mph SSE35.7 kmh SSE 23.5 mph37.8 kmh 29.93 in1013.5 mb 0.04 in1.0 mm 0.00 in0.0 mm 0.05 in1.3 mm
05:19 AM 59.9°F15.5°C 59.0°F15.0°C 97% 22.3 mph SE35.9 kmh SE 23.8 mph38.3 kmh 29.94 in1013.9 mb 0.04 in1.0 mm 0.00 in0.0 mm 0.05 in1.3 mm
05:18 AM 59.9°F15.5°C 59.0°F15.0°C 96% 20.1 mph E32.3 kmh E 20.1 mph32.3 kmh 29.94 in1013.9 mb 0.04 in1.0 mm 1.20 in30.5 mm 0.05 in1.3 mm
05:17 AM 60.1°F15.6°C 59.0°F15.0°C 96% 19.9 mph NE32.0 kmh NE 19.9 mph32.0 kmh 29.94 in1013.9 mb 0.02 in0.5 mm 0.60 in15.2 mm 0.03 in0.8 mm
05:16 AM 60.1°F15.6°C 58.0°F14.4°C 95% 20.0 mph N32.2 kmh N 19.9 mph32.0 kmh 29.94 in1013.9 mb 0.01 in0.3 mm 0.00 in0.0 mm 0.02 in0.5 mm
05:15 AM 60.3°F15.7°C 58.0°F14.4°C 94% 20.0 mph 32.2 kmh 20.1 mph32.3 kmh 29.94 in1013.9 mb 0.01 in0.3 mm 0.60 in15.2 mm 0.02 in0.5 mm
05:14 AM 60.3°F15.7°C 58.0°F14.4°C 93% 20.8 mph S33.5 kmh S 21.2 mph34.1 kmh 29.94 in1013.9 mb 0.00 in0.0 mm 0.00 in0.0 mm 0.01 in0.3 mm
05:13 AM 60.1°F15.6°C 58.0°F14.4°C 93% 20.3 mph ESE32.7 kmh ESE 20.5 mph33.0 kmh 29.95 in1014.2 mb 0.00 in0.0 mm 0.00 in0.0 mm 0.01 in0.3 mm
05:12 AM 60.1°F15.6°C 58.0°F14.4°C 92% 20.8 mph NE33.5 kmh NE 21.3 mph34.3 kmh 29.95 in1014.2 mb 0.00 in0.0 mm 0.00 in0.0 mm 0.01 in0.3 mm
05:11 AM 60.3°F15.7°C 58.0°F14.4°C 92% 20.8 mph N33.5 kmh N 21.4 mph34.4 kmh 29.95 in1014.2 mb 0.00 in0.0 mm 0.00 in0.0 mm 0.01 in0.3 mm
05:10 AM 60.1°F15.6°C 58.0°F14.4°C 91% 20.7 mph N33.3 kmh N 21.2 mph34.1 kmh 29.94 in1013.9 mb 0.00 in0.0 mm 0.00 in0.0 mm 0.01 in0.3 mm
05:09 AM 60.1°F15.6°C 57.0°F13.9°C 91% 21.3 mph NE34.3 kmh NE 22.1 mph35.6 kmh 29.94 in1013.9 mb 0.00 in0.0 mm 0.00 in0.0 mm 0.01 in0.3 mm
05:08 AM 60.1°F15.6°C 57.0°F13.9°C 91% 21.1 mph NE34.0 kmh NE 21.8 mph35.1 kmh 29.94 in1013.9 mb 0.00 in0.0 mm 0.00 in0.0 mm 0.01 in0.3 mm
05:07 AM 60.1°F15.6°C 57.0°F13.9°C 91% 21.3 mph NE34.3 kmh NE 22.1 mph35.6 kmh 29.94 in1013.9 mb 0.00 in0.0 mm 0.00 in0.0 mm 0.01 in0.3 mm
05:06 AM 60.1°F15.6°C 57.0°F13.9°C 91% 20.5 mph NE33.0 kmh NE 21.0 mph33.8 kmh 29.94 in1013.9 mb 0.00 in0.0 mm 0.00 in0.0 mm 0.01 in0.3 mm
05:05 AM 60.1°F15.6°C 58.0°F14.4°C 91% 21.2 mph NE34.1 kmh NE 21.9 mph35.2 kmh 29.94 in1013.9 mb 0.00 in0.0 mm 0.00 in0.0 mm 0.01 in0.3 mm
05:04 AM 59.9°F15.5°C 57.0°F13.9°C 92% 21.0 mph N33.8 kmh N 21.5 mph34.6 kmh 29.94 in1013.9 mb 0.00 in0.0 mm 0.00 in0.0 mm 0.01 in0.3 mm
05:03 AM 59.9°F15.5°C 57.0°F13.9°C 92% 21.0 mph NNE33.8 kmh NNE 21.7 mph34.9 kmh 29.94 in1013.9 mb 0.00 in0.0 mm 0.00 in0.0 mm 0.01 in0.3 mm
05:02 AM 59.9°F15.5°C 58.0°F14.4°C 92% 20.6 mph 33.2 kmh 20.9 mph33.6 kmh 29.94 in1013.9 mb 0.00 in0.0 mm 0.00 in0.0 mm 0.01 in0.3 mm
05:01 AM 59.9°F15.5°C 58.0°F14.4°C 92% 21.0 mph 33.8 kmh 21.6 mph34.8 kmh 29.95 in1014.2 mb 0.00 in0.0 mm 0.00 in0.0 mm 0.01 in0.3 mm
05:00 AM 59.7°F15.4°C 58.0°F14.4°C 93% 20.7 mph 33.3 kmh 21.2 mph34.1 kmh 29.95 in1014.2 mb 0.00 in0.0 mm 0.00 in0.0 mm 0.01 in0.3 mm
04:59 AM 59.7°F15.4°C 58.0°F14.4°C 93% 20.8 mph N33.5 kmh N 21.4 mph34.4 kmh 29.95 in1014.2 mb 0.00 in0.0 mm 0.00 in0.0 mm 0.01 in0.3 mm
04:58 AM 59.7°F15.4°C 58.0°F14.4°C 93% 20.9 mph ENE33.6 kmh ENE 21.5 mph34.6 kmh 29.95 in1014.2 mb 0.00 in0.0 mm 0.00 in0.0 mm 0.01 in0.3 mm
04:57 AM 59.7°F15.4°C 58.0°F14.4°C 94% 21.9 mph ESE35.2 kmh ESE 23.2 mph37.3 kmh 29.95 in1014.2 mb 0.00 in0.0 mm 0.00 in0.0 mm 0.01 in0.3 mm
04:56 AM 59.7°F15.4°C 58.0°F14.4°C 94% 22.2 mph SE35.7 kmh SE 23.5 mph37.8 kmh 29.95 in1014.2 mb 0.00 in0.0 mm 0.00 in0.0 mm 0.01 in0.3 mm
04:55 AM 59.5°F15.3°C 58.0°F14.4°C 94% 23.5 mph WSW37.8 kmh WSW 25.9 mph41.7 kmh 29.96 in1014.6 mb 0.00 in0.0 mm 0.00 in0.0 mm 0.01 in0.3 mm
04:54 AM 59.5°F15.3°C 58.0°F14.4°C 94% 23.5 mph WNW37.8 kmh WNW 25.7 mph41.4 kmh 29.95 in1014.2 mb 0.00 in0.0 mm 0.00 in0.0 mm 0.01 in0.3 mm
04:53 AM 59.4°F15.2°C 58.0°F14.4°C 94% 23.4 mph W37.7 kmh W 25.5 mph41.0 kmh 29.95 in1014.2 mb 0.00 in0.0 mm 0.00 in0.0 mm 0.01 in0.3 mm
04:52 AM 59.4°F15.2°C 58.0°F14.4°C 94% 23.4 mph WSW37.7 kmh WSW 25.5 mph41.0 kmh 29.95 in1014.2 mb 0.00 in0.0 mm 0.00 in0.0 mm 0.01 in0.3 mm
04:51 AM 59.2°F15.1°C 58.0°F14.4°C 94% 22.5 mph NW36.2 kmh NW 23.9 mph38.5 kmh 29.95 in1014.2 mb 0.00 in0.0 mm 0.00 in0.0 mm 0.01 in0.3 mm
04:50 AM 59.2°F15.1°C 58.0°F14.4°C 95% 22.4 mph NW36.0 kmh NW 23.7 mph38.1 kmh 29.95 in1014.2 mb 0.00 in0.0 mm 0.00 in0.0 mm 0.01 in0.3 mm
04:49 AM 59.4°F15.2°C 58.0°F14.4°C 95% 23.3 mph WSW37.5 kmh WSW 25.3 mph40.7 kmh 29.94 in1013.9 mb 0.00 in0.0 mm 0.00 in0.0 mm 0.01 in0.3 mm
04:48 AM 59.4°F15.2°C 58.0°F14.4°C 94% 23.0 mph NW37.0 kmh NW 24.8 mph39.9 kmh 29.94 in1013.9 mb 0.00 in0.0 mm 0.00 in0.0 mm 0.01 in0.3 mm
04:47 AM 59.4°F15.2°C 58.0°F14.4°C 94% 21.6 mph SW34.8 kmh SW 22.5 mph36.2 kmh 29.94 in1013.9 mb 0.00 in0.0 mm 0.00 in0.0 mm 0.01 in0.3 mm
04:46 AM 59.2°F15.1°C 58.0°F14.4°C 94% 21.8 mph NW35.1 kmh NW 22.8 mph36.7 kmh 29.94 in1013.9 mb 0.00 in0.0 mm 0.00 in0.0 mm 0.01 in0.3 mm
04:45 AM 59.2°F15.1°C 58.0°F14.4°C 95% 21.6 mph NW34.8 kmh NW 22.5 mph36.2 kmh 29.94 in1013.9 mb 0.00 in0.0 mm 0.00 in0.0 mm 0.01 in0.3 mm
04:44 AM 59.2°F15.1°C 58.0°F14.4°C 95% 21.6 mph WNW34.8 kmh WNW 22.5 mph36.2 kmh 29.94 in1013.9 mb 0.00 in0.0 mm 0.00 in0.0 mm 0.01 in0.3 mm
04:43 AM 59.2°F15.1°C 58.0°F14.4°C 95% 20.5 mph NW33.0 kmh NW 20.8 mph33.5 kmh 29.94 in1013.9 mb 0.00 in0.0 mm 0.00 in0.0 mm 0.01 in0.3 mm
04:42 AM 59.2°F15.1°C 58.0°F14.4°C 95% 20.0 mph NW32.2 kmh NW 20.1 mph32.3 kmh 29.94 in1013.9 mb 0.00 in0.0 mm 0.00 in0.0 mm 0.01 in0.3 mm
04:41 AM 59.2°F15.1°C 58.0°F14.4°C 95% 21.0 mph NW33.8 kmh NW 21.6 mph34.8 kmh 29.94 in1013.9 mb 0.00 in0.0 mm 0.00 in0.0 mm 0.01 in0.3 mm
04:40 AM 59.2°F15.1°C 58.0°F14.4°C 95% 19.9 mph NW32.0 kmh NW 19.9 mph32.0 kmh 29.94 in1013.9 mb 0.00 in0.0 mm 0.00 in0.0 mm 0.01 in0.3 mm
04:39 AM 59.2°F15.1°C 58.0°F14.4°C 95% 19.9 mph NW32.0 kmh NW 19.9 mph32.0 kmh 29.94 in1013.9 mb 0.00 in0.0 mm 0.00 in0.0 mm 0.01 in0.3 mm
04:38 AM 59.2°F15.1°C 58.0°F14.4°C 95% 19.9 mph NW32.0 kmh NW 19.9 mph32.0 kmh 29.94 in1013.9 mb 0.00 in0.0 mm 0.00 in0.0 mm 0.01 in0.3 mm
04:37 AM 59.2°F15.1°C 58.0°F14.4°C 94% 20.1 mph NW32.3 kmh NW 20.2 mph32.5 kmh 29.93 in1013.5 mb 0.00 in0.0 mm 0.00 in0.0 mm 0.01 in0.3 mm
04:36 AM 59.4°F15.2°C 58.0°F14.4°C 94% 19.9 mph NW32.0 kmh NW 19.9 mph32.0 kmh 29.93 in1013.5 mb 0.00 in0.0 mm 0.00 in0.0 mm 0.01 in0.3 mm
04:35 AM 59.4°F15.2°C 58.0°F14.4°C 94% 20.2 mph WNW32.5 kmh WNW 20.4 mph32.8 kmh 29.93 in1013.5 mb 0.00 in0.0 mm 0.00 in0.0 mm 0.01 in0.3 mm
04:34 AM 59.4°F15.2°C 57.0°F13.9°C 94% 21.2 mph NE34.1 kmh NE 22.0 mph35.4 kmh 29.93 in1013.5 mb 0.00 in0.0 mm 0.00 in0.0 mm 0.01 in0.3 mm
04:33 AM 59.5°F15.3°C 58.0°F14.4°C 93% 20.0 mph NNE32.2 kmh NNE 20.0 mph32.2 kmh 29.93 in1013.5 mb 0.00 in0.0 mm 0.00 in0.0 mm 0.01 in0.3 mm
04:32 AM 59.5°F15.3°C 58.0°F14.4°C 93% 20.0 mph 32.2 kmh 20.1 mph32.3 kmh 29.93 in1013.5 mb 0.00 in0.0 mm 0.00 in0.0 mm 0.01 in0.3 mm
04:31 AM 59.7°F15.4°C 58.0°F14.4°C 93% 20.6 mph 33.2 kmh 21.0 mph33.8 kmh 29.93 in1013.5 mb 0.00 in0.0 mm 0.00 in0.0 mm 0.01 in0.3 mm
04:30 AM 59.9°F15.5°C 58.0°F14.4°C 93% 19.9 mph 32.0 kmh 19.9 mph32.0 kmh 29.93 in1013.5 mb 0.00 in0.0 mm 0.00 in0.0 mm 0.01 in0.3 mm
04:29 AM 59.9°F15.5°C 58.0°F14.4°C 93% 20.3 mph 32.7 kmh 20.5 mph33.0 kmh 29.93 in1013.5 mb 0.00 in0.0 mm 0.00 in0.0 mm 0.01 in0.3 mm
04:28 AM 60.1°F15.6°C 58.0°F14.4°C 92% 21.1 mph ESE34.0 kmh ESE 21.8 mph35.1 kmh 29.93 in1013.5 mb 0.00 in0.0 mm 0.00 in0.0 mm 0.01 in0.3 mm
04:27 AM 60.1°F15.6°C 58.0°F14.4°C 92% 22.1 mph WSW35.6 kmh WSW 23.4 mph37.7 kmh 29.93 in1013.5 mb 0.00 in0.0 mm 0.00 in0.0 mm 0.01 in0.3 mm
04:26 AM 60.3°F15.7°C 58.0°F14.4°C 92% 20.7 mph SE33.3 kmh SE 21.3 mph34.3 kmh 29.93 in1013.5 mb 0.00 in0.0 mm 0.00 in0.0 mm 0.01 in0.3 mm
04:25 AM 60.3°F15.7°C 58.0°F14.4°C 92% 21.5 mph NW34.6 kmh NW 22.3 mph35.9 kmh 29.93 in1013.5 mb 0.00 in0.0 mm 0.00 in0.0 mm 0.01 in0.3 mm
04:24 AM 60.4°F15.8°C 58.0°F14.4°C 92% 21.2 mph WSW34.1 kmh WSW 22.0 mph35.4 kmh 29.93 in1013.5 mb 0.00 in0.0 mm 0.00 in0.0 mm 0.01 in0.3 mm
04:23 AM 60.4°F15.8°C 58.0°F14.4°C 91% 21.5 mph NW34.6 kmh NW 22.4 mph36.0 kmh 29.93 in1013.5 mb 0.00 in0.0 mm 0.00 in0.0 mm 0.01 in0.3 mm
04:22 AM 60.4°F15.8°C 58.0°F14.4°C 91% 21.1 mph W34.0 kmh W 21.8 mph35.1 kmh 29.93 in1013.5 mb 0.00 in0.0 mm 0.00 in0.0 mm 0.01 in0.3 mm
04:21 AM 60.6°F15.9°C 58.0°F14.4°C 91% 21.1 mph WSW34.0 kmh WSW 21.7 mph34.9 kmh 29.93 in1013.5 mb 0.00 in0.0 mm 0.00 in0.0 mm 0.01 in0.3 mm
04:20 AM 60.6°F15.9°C 58.0°F14.4°C 91% 20.0 mph NW32.2 kmh NW 20.1 mph32.3 kmh 29.93 in1013.5 mb 0.00 in0.0 mm 0.00 in0.0 mm 0.01 in0.3 mm
04:19 AM 60.6°F15.9°C 58.0°F14.4°C 90% 20.2 mph S32.5 kmh S 20.3 mph32.7 kmh 29.93 in1013.5 mb 0.00 in0.0 mm 0.00 in0.0 mm 0.01 in0.3 mm
04:18 AM 60.6°F15.9°C 58.0°F14.4°C 90% 19.9 mph WNW32.0 kmh WNW 19.9 mph32.0 kmh 29.93 in1013.5 mb 0.00 in0.0 mm 0.00 in0.0 mm 0.01 in0.3 mm
04:17 AM 60.6°F15.9°C 58.0°F14.4°C 90% 20.4 mph N32.8 kmh N 20.7 mph33.3 kmh 29.93 in1013.5 mb 0.00 in0.0 mm 0.00 in0.0 mm 0.01 in0.3 mm
04:16 AM 60.8°F16.0°C 58.0°F14.4°C 90% 20.0 mph SSE32.2 kmh SSE 20.1 mph32.3 kmh 29.93 in1013.5 mb 0.00 in0.0 mm 0.00 in0.0 mm 0.01 in0.3 mm
04:15 AM 60.8°F16.0°C 58.0°F14.4°C 90% 20.3 mph ESE32.7 kmh ESE 20.5 mph33.0 kmh 29.93 in1013.5 mb 0.00 in0.0 mm 0.00 in0.0 mm 0.01 in0.3 mm
04:14 AM 60.8°F16.0°C 58.0°F14.4°C 89% 20.4 mph SSE32.8 kmh SSE 20.7 mph33.3 kmh 29.93 in1013.5 mb 0.00 in0.0 mm 0.00 in0.0 mm 0.01 in0.3 mm
04:13 AM 61.0°F16.1°C 58.0°F14.4°C 89% 21.0 mph SE33.8 kmh SE 21.6 mph34.8 kmh 29.92 in1013.2 mb 0.00 in0.0 mm 0.00 in0.0 mm 0.01 in0.3 mm
04:12 AM 61.0°F16.1°C 58.0°F14.4°C 88% 20.4 mph SE32.8 kmh SE 20.6 mph33.2 kmh 29.93 in1013.5 mb 0.00 in0.0 mm 0.00 in0.0 mm 0.01 in0.3 mm
04:11 AM 61.0°F16.1°C 58.0°F14.4°C 88% 20.4 mph SE32.8 kmh SE 20.7 mph33.3 kmh 29.93 in1013.5 mb 0.00 in0.0 mm 0.00 in0.0 mm 0.01 in0.3 mm
04:10 AM 61.0°F16.1°C 57.0°F13.9°C 88% 20.7 mph E33.3 kmh E 21.2 mph34.1 kmh 29.93 in1013.5 mb 0.00 in0.0 mm 0.00 in0.0 mm 0.01 in0.3 mm
04:09 AM 61.0°F16.1°C 57.0°F13.9°C 88% 21.1 mph SE34.0 kmh SE 21.8 mph35.1 kmh 29.93 in1013.5 mb 0.00 in0.0 mm 0.00 in0.0 mm 0.01 in0.3 mm
04:08 AM 61.0°F16.1°C 57.0°F13.9°C 88% 21.4 mph E34.4 kmh E 22.2 mph35.7 kmh 29.93 in1013.5 mb 0.00 in0.0 mm 0.00 in0.0 mm 0.01 in0.3 mm
04:07 AM 61.0°F16.1°C 57.0°F13.9°C 88% 20.3 mph ESE32.7 kmh ESE 20.5 mph33.0 kmh 29.93 in1013.5 mb 0.00 in0.0 mm 0.00 in0.0 mm 0.01 in0.3 mm
04:06 AM 61.0°F16.1°C 57.0°F13.9°C 88% 20.6 mph ESE33.2 kmh ESE 21.0 mph33.8 kmh 29.93 in1013.5 mb 0.00 in0.0 mm 0.00 in0.0 mm 0.01 in0.3 mm
04:05 AM 61.0°F16.1°C 57.0°F13.9°C 88% 20.3 mph ENE32.7 kmh ENE 20.5 mph33.0 kmh 29.93 in1013.5 mb 0.00 in0.0 mm 0.00 in0.0 mm 0.01 in0.3 mm
04:04 AM 61.0°F16.1°C 57.0°F13.9°C 87% 20.0 mph SE32.2 kmh SE 20.1 mph32.3 kmh 29.93 in1013.5 mb 0.00 in0.0 mm 0.00 in0.0 mm 0.01 in0.3 mm
04:03 AM 61.0°F16.1°C 57.0°F13.9°C 88% 20.7 mph SE33.3 kmh SE 21.1 mph34.0 kmh 29.93 in1013.5 mb 0.00 in0.0 mm 0.00 in0.0 mm 0.01 in0.3 mm
04:02 AM 61.2°F16.2°C 58.0°F14.4°C 88% 21.8 mph SSE35.1 kmh SSE 23.1 mph37.2 kmh 29.93 in1013.5 mb 0.00 in0.0 mm 0.00 in0.0 mm 0.01 in0.3 mm
04:01 AM 61.2°F16.2°C 58.0°F14.4°C 88% 21.2 mph SE34.1 kmh SE 22.0 mph35.4 kmh 29.93 in1013.5 mb 0.00 in0.0 mm 0.00 in0.0 mm 0.01 in0.3 mm
04:00 AM 61.2°F16.2°C 58.0°F14.4°C 89% 21.2 mph SE34.1 kmh SE 21.9 mph35.2 kmh 29.93 in1013.5 mb 0.00 in0.0 mm 0.00 in0.0 mm 0.01 in0.3 mm
03:59 AM 61.2°F16.2°C 58.0°F14.4°C 89% 20.5 mph SE33.0 kmh SE 21.0 mph33.8 kmh 29.93 in1013.5 mb 0.00 in0.0 mm 0.00 in0.0 mm 0.01 in0.3 mm
03:58 AM 61.2°F16.2°C 58.0°F14.4°C 89% 22.7 mph SE36.5 kmh SE 24.4 mph39.3 kmh 29.93 in1013.5 mb 0.00 in0.0 mm 0.00 in0.0 mm 0.01 in0.3 mm
03:57 AM 61.2°F16.2°C 58.0°F14.4°C 88% 22.8 mph SE36.7 kmh SE 24.9 mph40.1 kmh 29.93 in1013.5 mb 0.00 in0.0 mm 0.00 in0.0 mm 0.01 in0.3 mm
03:56 AM 61.2°F16.2°C 58.0°F14.4°C 88% 24.3 mph SSE39.1 kmh SSE 26.7 mph43.0 kmh 29.93 in1013.5 mb 0.00 in0.0 mm 0.00 in0.0 mm 0.01 in0.3 mm
03:55 AM 61.2°F16.2°C 58.0°F14.4°C 88% 24.2 mph SE38.9 kmh SE 26.5 mph42.6 kmh 29.93 in1013.5 mb 0.00 in0.0 mm 0.00 in0.0 mm 0.01 in0.3 mm
03:54 AM 61.2°F16.2°C 58.0°F14.4°C 88% 23.3 mph SSE37.5 kmh SSE 25.2 mph40.6 kmh 29.93 in1013.5 mb 0.00 in0.0 mm 0.00 in0.0 mm 0.01 in0.3 mm
03:53 AM 61.0°F16.1°C 58.0°F14.4°C 88% 23.2 mph SE37.3 kmh SE 25.0 mph40.2 kmh 29.93 in1013.5 mb 0.01 in0.3 mm 0.00 in0.0 mm 0.01 in0.3 mm
03:52 AM 61.2°F16.2°C 58.0°F14.4°C 89% 22.8 mph SSE36.7 kmh SSE 24.3 mph39.1 kmh 29.93 in1013.5 mb 0.01 in0.3 mm 0.00 in0.0 mm 0.01 in0.3 mm
03:51 AM 61.0°F16.1°C 57.0°F13.9°C 88% 23.7 mph SSE38.1 kmh SSE 25.6 mph41.2 kmh 29.93 in1013.5 mb 0.01 in0.3 mm 0.00 in0.0 mm 0.01 in0.3 mm
03:50 AM 61.0°F16.1°C 58.0°F14.4°C 89% 23.4 mph SE37.7 kmh SE 25.3 mph40.7 kmh 29.93 in1013.5 mb 0.01 in0.3 mm 0.00 in0.0 mm 0.01 in0.3 mm
03:49 AM 61.0°F16.1°C 57.0°F13.9°C 88% 23.1 mph SSE37.2 kmh SSE 24.9 mph40.1 kmh 29.93 in1013.5 mb 0.01 in0.3 mm 0.00 in0.0 mm 0.01 in0.3 mm
03:48 AM 61.0°F16.1°C 57.0°F13.9°C 88% 22.6 mph SE36.4 kmh SE 24.3 mph39.1 kmh 29.93 in1013.5 mb 0.01 in0.3 mm 0.00 in0.0 mm 0.01 in0.3 mm
03:47 AM 60.8°F16.0°C 57.0°F13.9°C 88% 21.7 mph SE34.9 kmh SE 22.8 mph36.7 kmh 29.93 in1013.5 mb 0.01 in0.3 mm 0.00 in0.0 mm 0.01 in0.3 mm
03:46 AM 60.8°F16.0°C 57.0°F13.9°C 88% 22.1 mph SE35.6 kmh SE 23.5 mph37.8 kmh 29.93 in1013.5 mb 0.01 in0.3 mm 0.00 in0.0 mm 0.01 in0.3 mm
03:45 AM 60.6°F15.9°C 57.0°F13.9°C 87% 21.3 mph SSE34.3 kmh SSE 22.3 mph35.9 kmh 29.93 in1013.5 mb 0.01 in0.3 mm 0.00 in0.0 mm 0.01 in0.3 mm
03:44 AM 60.8°F16.0°C 57.0°F13.9°C 88% 20.8 mph SE33.5 kmh SE 21.5 mph34.6 kmh 29.93 in1013.5 mb 0.01 in0.3 mm 0.00 in0.0 mm 0.01 in0.3 mm
03:43 AM 60.6°F15.9°C 58.0°F14.4°C 90% 20.1 mph SE32.3 kmh SE 20.2 mph32.5 kmh 29.93 in1013.5 mb 0.01 in0.3 mm 0.00 in0.0 mm 0.01 in0.3 mm
03:42 AM 60.6°F15.9°C 58.0°F14.4°C 90% 21.2 mph SE34.1 kmh SE 21.8 mph35.1 kmh 29.93 in1013.5 mb 0.01 in0.3 mm 0.00 in0.0 mm 0.01 in0.3 mm
03:41 AM 60.4°F15.8°C 58.0°F14.4°C 91% 22.0 mph S35.4 kmh S 23.1 mph37.2 kmh 29.93 in1013.5 mb 0.01 in0.3 mm 0.00 in0.0 mm 0.01 in0.3 mm
03:40 AM 60.4°F15.8°C 58.0°F14.4°C 92% 22.2 mph S35.7 kmh S 23.3 mph37.5 kmh 29.93 in1013.5 mb 0.01 in0.3 mm 0.00 in0.0 mm 0.01 in0.3 mm
03:39 AM 60.4°F15.8°C 58.0°F14.4°C 92% 22.8 mph S36.7 kmh S 24.2 mph38.9 kmh 29.93 in1013.5 mb 0.01 in0.3 mm 0.00 in0.0 mm 0.01 in0.3 mm
03:38 AM 60.4°F15.8°C 58.0°F14.4°C 93% 21.8 mph S35.1 kmh S 22.8 mph36.7 kmh 29.93 in1013.5 mb 0.01 in0.3 mm 0.00 in0.0 mm 0.01 in0.3 mm
03:37 AM 60.4°F15.8°C 58.0°F14.4°C 92% 20.5 mph S33.0 kmh S 20.9 mph33.6 kmh 29.93 in1013.5 mb 0.01 in0.3 mm 0.00 in0.0 mm 0.01 in0.3 mm
03:36 AM 60.4°F15.8°C 58.0°F14.4°C 92% 20.2 mph S32.5 kmh S 20.4 mph32.8 kmh 29.93 in1013.5 mb 0.01 in0.3 mm 0.00 in0.0 mm 0.01 in0.3 mm
03:35 AM 60.6°F15.9°C 58.0°F14.4°C 91% 19.9 mph SSE32.0 kmh SSE 19.9 mph32.0 kmh 29.93 in1013.5 mb 0.01 in0.3 mm 0.00 in0.0 mm 0.01 in0.3 mm
03:34 AM 60.4°F15.8°C 58.0°F14.4°C 92% 19.9 mph SE32.0 kmh SE 19.9 mph32.0 kmh 29.93 in1013.5 mb 0.01 in0.3 mm 0.00 in0.0 mm 0.01 in0.3 mm
03:33 AM 60.4°F15.8°C 58.0°F14.4°C 91% 20.6 mph SE33.2 kmh SE 21.0 mph33.8 kmh 29.93 in1013.5 mb 0.01 in0.3 mm 0.00 in0.0 mm 0.01 in0.3 mm
03:32 AM 60.4°F15.8°C 58.0°F14.4°C 91% 19.9 mph SSE32.0 kmh SSE 20.0 mph32.2 kmh 29.93 in1013.5 mb 0.01 in0.3 mm 0.00 in0.0 mm 0.01 in0.3 mm
03:31 AM 60.6°F15.9°C 58.0°F14.4°C 91% 19.9 mph NE32.0 kmh NE 19.9 mph32.0 kmh 29.93 in1013.5 mb 0.01 in0.3 mm 0.00 in0.0 mm 0.01 in0.3 mm
03:30 AM 60.6°F15.9°C 58.0°F14.4°C 90% 19.9 mph NE32.0 kmh NE 19.9 mph32.0 kmh 29.93 in1013.5 mb 0.01 in0.3 mm 0.00 in0.0 mm 0.01 in0.3 mm
03:29 AM 60.6°F15.9°C 58.0°F14.4°C 90% 19.9 mph NE32.0 kmh NE 19.9 mph32.0 kmh 29.93 in1013.5 mb 0.01 in0.3 mm 0.00 in0.0 mm 0.01 in0.3 mm
03:28 AM 60.6°F15.9°C 58.0°F14.4°C 92% 20.0 mph S32.2 kmh S 20.0 mph32.2 kmh 29.93 in1013.5 mb 0.01 in0.3 mm 0.00 in0.0 mm 0.01 in0.3 mm
03:27 AM 60.6°F15.9°C 58.0°F14.4°C 92% 19.9 mph SSW32.0 kmh SSW 19.9 mph32.0 kmh 29.93 in1013.5 mb 0.01 in0.3 mm 0.00 in0.0 mm 0.01 in0.3 mm
03:26 AM 60.6°F15.9°C 58.0°F14.4°C 90% 19.9 mph SW32.0 kmh SW 19.9 mph32.0 kmh 29.93 in1013.5 mb 0.01 in0.3 mm 0.00 in0.0 mm 0.01 in0.3 mm
03:25 AM 60.6°F15.9°C 58.0°F14.4°C 90% 19.9 mph SW32.0 kmh SW 19.9 mph32.0 kmh 29.93 in1013.5 mb 0.01 in0.3 mm 0.00 in0.0 mm 0.01 in0.3 mm
03:24 AM 60.6°F15.9°C 58.0°F14.4°C 90% 20.0 mph SW32.2 kmh SW 20.1 mph32.3 kmh 29.93 in1013.5 mb 0.01 in0.3 mm 0.00 in0.0 mm 0.01 in0.3 mm
03:23 AM 60.6°F15.9°C 58.0°F14.4°C 92% 20.1 mph SSW32.3 kmh SSW 20.2 mph32.5 kmh 29.93 in1013.5 mb 0.01 in0.3 mm 0.00 in0.0 mm 0.01 in0.3 mm
03:22 AM 60.6°F15.9°C 58.0°F14.4°C 91% 20.2 mph S32.5 kmh S 20.4 mph32.8 kmh 29.93 in1013.5 mb 0.01 in0.3 mm 0.00 in0.0 mm 0.01 in0.3 mm
03:21 AM 60.6°F15.9°C 58.0°F14.4°C 90% 21.0 mph S33.8 kmh S 21.5 mph34.6 kmh 29.93 in1013.5 mb 0.01 in0.3 mm 0.00 in0.0 mm 0.01 in0.3 mm
03:20 AM 60.6°F15.9°C 58.0°F14.4°C 90% 20.4 mph SSW32.8 kmh SSW 20.7 mph33.3 kmh 29.93 in1013.5 mb 0.01 in0.3 mm 0.00 in0.0 mm 0.01 in0.3 mm
03:19 AM 60.8°F16.0°C 58.0°F14.4°C 90% 20.1 mph SW32.3 kmh SW 20.2 mph32.5 kmh 29.93 in1013.5 mb 0.01 in0.3 mm 0.00 in0.0 mm 0.01 in0.3 mm
03:18 AM 60.6°F15.9°C 58.0°F14.4°C 90% 19.9 mph SW32.0 kmh SW 19.9 mph32.0 kmh 29.93 in1013.5 mb 0.01 in0.3 mm 0.00 in0.0 mm 0.01 in0.3 mm
03:17 AM 60.8°F16.0°C 58.0°F14.4°C 89% 19.9 mph SW32.0 kmh SW 19.9 mph32.0 kmh 29.93 in1013.5 mb 0.01 in0.3 mm 0.00 in0.0 mm 0.01 in0.3 mm
03:16 AM 60.6°F15.9°C 57.0°F13.9°C 88% 19.9 mph WSW32.0 kmh WSW 19.9 mph32.0 kmh 29.93 in1013.5 mb 0.01 in0.3 mm 0.00 in0.0 mm 0.01 in0.3 mm
03:15 AM 60.6°F15.9°C 57.0°F13.9°C 87% 19.9 mph W32.0 kmh W 19.9 mph32.0 kmh 29.93 in1013.5 mb 0.01 in0.3 mm 0.00 in0.0 mm 0.01 in0.3 mm
03:14 AM 60.6°F15.9°C 57.0°F13.9°C 87% 19.9 mph W32.0 kmh W 19.9 mph32.0 kmh 29.93 in1013.5 mb 0.01 in0.3 mm 0.00 in0.0 mm 0.01 in0.3 mm
03:13 AM 60.6°F15.9°C 56.0°F13.3°C 87% 19.9 mph W32.0 kmh W 19.9 mph32.0 kmh 29.93 in1013.5 mb 0.01 in0.3 mm 0.00 in0.0 mm 0.01 in0.3 mm
03:12 AM 60.6°F15.9°C 57.0°F13.9°C 88% 19.9 mph SSW32.0 kmh SSW 19.9 mph32.0 kmh 29.93 in1013.5 mb 0.01 in0.3 mm 0.00 in0.0 mm 0.01 in0.3 mm
03:11 AM 60.6°F15.9°C 58.0°F14.4°C 90% 19.9 mph SSE32.0 kmh SSE 19.9 mph32.0 kmh 29.93 in1013.5 mb 0.01 in0.3 mm 0.00 in0.0 mm 0.01 in0.3 mm
03:10 AM 60.6°F15.9°C 57.0°F13.9°C 88% 19.9 mph E32.0 kmh E 19.9 mph32.0 kmh 29.92 in1013.2 mb 0.01 in0.3 mm 0.00 in0.0 mm 0.01 in0.3 mm
03:09 AM 60.8°F16.0°C 57.0°F13.9°C 88% 19.9 mph E32.0 kmh E 19.9 mph32.0 kmh 29.92 in1013.2 mb 0.01 in0.3 mm 0.00 in0.0 mm 0.01 in0.3 mm
03:08 AM 60.8°F16.0°C 57.0°F13.9°C 89% 19.9 mph E32.0 kmh E 19.9 mph32.0 kmh 29.92 in1013.2 mb 0.01 in0.3 mm 0.00 in0.0 mm 0.01 in0.3 mm
03:07 AM 60.8°F16.0°C 58.0°F14.4°C 90% 19.9 mph E32.0 kmh E 19.9 mph32.0 kmh 29.92 in1013.2 mb 0.01 in0.3 mm 0.00 in0.0 mm 0.01 in0.3 mm
03:06 AM 60.8°F16.0°C 58.0°F14.4°C 89% 19.9 mph E32.0 kmh E 19.9 mph32.0 kmh 29.92 in1013.2 mb 0.01 in0.3 mm 0.00 in0.0 mm 0.01 in0.3 mm
03:05 AM 60.8°F16.0°C 57.0°F13.9°C 88% 19.9 mph E32.0 kmh E 19.9 mph32.0 kmh 29.93 in1013.5 mb 0.01 in0.3 mm 0.00 in0.0 mm 0.01 in0.3 mm
03:04 AM 61.0°F16.1°C 58.0°F14.4°C 88% 20.2 mph E32.5 kmh E 20.5 mph33.0 kmh 29.93 in1013.5 mb 0.01 in0.3 mm 0.00 in0.0 mm 0.01 in0.3 mm
03:03 AM 61.0°F16.1°C 57.0°F13.9°C 88% 20.0 mph E32.2 kmh E 20.1 mph32.3 kmh 29.93 in1013.5 mb 0.01 in0.3 mm 0.00 in0.0 mm 0.01 in0.3 mm
03:02 AM 61.0°F16.1°C 57.0°F13.9°C 88% 20.6 mph E33.2 kmh E 21.0 mph33.8 kmh 29.93 in1013.5 mb 0.01 in0.3 mm 0.00 in0.0 mm 0.01 in0.3 mm
03:01 AM 61.0°F16.1°C 57.0°F13.9°C 88% 19.9 mph E32.0 kmh E 20.0 mph32.2 kmh 29.93 in1013.5 mb 0.01 in0.3 mm 0.00 in0.0 mm 0.01 in0.3 mm
03:00 AM 61.3°F16.3°C 57.0°F13.9°C 87% 19.9 mph E32.0 kmh E 19.9 mph32.0 kmh 29.93 in1013.5 mb 0.01 in0.3 mm 0.00 in0.0 mm 0.01 in0.3 mm
02:59 AM 61.5°F16.4°C 58.0°F14.4°C 87% 19.9 mph E32.0 kmh E 19.9 mph32.0 kmh 29.93 in1013.5 mb 0.01 in0.3 mm 0.00 in0.0 mm 0.01 in0.3 mm
02:58 AM 61.7°F16.5°C 57.0°F13.9°C 85% 19.9 mph S32.0 kmh S 19.9 mph32.0 kmh 29.93 in1013.5 mb 0.01 in0.3 mm 0.00 in0.0 mm 0.01 in0.3 mm
02:57 AM 61.7°F16.5°C 56.0°F13.3°C 82% 19.9 mph SSW32.0 kmh SSW 19.9 mph32.0 kmh 29.93 in1013.5 mb 0.01 in0.3 mm 0.00 in0.0 mm 0.01 in0.3 mm
02:56 AM 61.5°F16.4°C 56.0°F13.3°C 82% 19.9 mph W32.0 kmh W 19.9 mph32.0 kmh 29.93 in1013.5 mb 0.01 in0.3 mm 0.00 in0.0 mm 0.01 in0.3 mm
02:55 AM 61.5°F16.4°C 56.0°F13.3°C 82% 19.9 mph SW32.0 kmh SW 19.9 mph32.0 kmh 29.93 in1013.5 mb 0.01 in0.3 mm 0.60 in15.2 mm 0.01 in0.3 mm
02:54 AM 61.7°F16.5°C 56.0°F13.3°C 81% 20.8 mph SE33.5 kmh SE 21.2 mph34.1 kmh 29.93 in1013.5 mb 0.00 in0.0 mm 0.00 in0.0 mm 0.00 in0.0 mm
02:53 AM 61.7°F16.5°C 56.0°F13.3°C 81% 20.6 mph SE33.2 kmh SE 21.0 mph33.8 kmh 29.93 in1013.5 mb 0.00 in0.0 mm 0.00 in0.0 mm 0.00 in0.0 mm
02:52 AM 61.7°F16.5°C 56.0°F13.3°C 81% 19.9 mph 32.0 kmh 19.9 mph32.0 kmh 29.93 in1013.5 mb 0.00 in0.0 mm 0.00 in0.0 mm 0.00 in0.0 mm
02:51 AM 61.7°F16.5°C 55.0°F12.8°C 80% 19.9 mph 32.0 kmh 19.9 mph32.0 kmh 29.93 in1013.5 mb 0.00 in0.0 mm 0.00 in0.0 mm 0.00 in0.0 mm
02:50 AM 61.7°F16.5°C 55.0°F12.8°C 80% 19.9 mph 32.0 kmh 19.9 mph32.0 kmh 29.93 in1013.5 mb 0.00 in0.0 mm 0.00 in0.0 mm 0.00 in0.0 mm
02:49 AM 61.7°F16.5°C 55.0°F12.8°C 80% 19.9 mph 32.0 kmh 19.9 mph32.0 kmh 29.92 in1013.2 mb 0.00 in0.0 mm 0.00 in0.0 mm 0.00 in0.0 mm
02:48 AM 61.7°F16.5°C 55.0°F12.8°C 80% 20.1 mph ENE32.3 kmh ENE 20.2 mph32.5 kmh 29.92 in1013.2 mb 0.00 in0.0 mm 0.00 in0.0 mm 0.00 in0.0 mm
02:47 AM 61.7°F16.5°C 55.0°F12.8°C 80% 20.8 mph SE33.5 kmh SE 21.3 mph34.3 kmh 29.92 in1013.2 mb 0.00 in0.0 mm 0.00 in0.0 mm 0.00 in0.0 mm
02:46 AM 61.7°F16.5°C 55.0°F12.8°C 79% 21.0 mph S33.8 kmh S 21.5 mph34.6 kmh 29.92 in1013.2 mb 0.00 in0.0 mm 0.00 in0.0 mm 0.00 in0.0 mm
02:45 AM 61.7°F16.5°C 55.0°F12.8°C 80% 20.4 mph S32.8 kmh S 20.7 mph33.3 kmh 29.92 in1013.2 mb 0.00 in0.0 mm 0.00 in0.0 mm 0.00 in0.0 mm
02:44 AM 61.7°F16.5°C 56.0°F13.3°C 81% 21.4 mph SSE34.4 kmh SSE 22.2 mph35.7 kmh 29.93 in1013.5 mb 0.00 in0.0 mm 0.00 in0.0 mm 0.00 in0.0 mm
02:43 AM 61.5°F16.4°C 55.0°F12.8°C 80% 22.8 mph W36.7 kmh W 24.5 mph39.4 kmh 29.93 in1013.5 mb 0.00 in0.0 mm 0.00 in0.0 mm 0.00 in0.0 mm
02:42 AM 61.7°F16.5°C 56.0°F13.3°C 80% 21.1 mph WSW34.0 kmh WSW 21.8 mph35.1 kmh 29.93 in1013.5 mb 0.00 in0.0 mm 0.00 in0.0 mm 0.00 in0.0 mm
02:41 AM 61.5°F16.4°C 55.0°F12.8°C 80% 19.9 mph SW32.0 kmh SW 19.9 mph32.0 kmh 29.93 in1013.5 mb 0.00 in0.0 mm 0.00 in0.0 mm 0.00 in0.0 mm
02:40 AM 61.5°F16.4°C 55.0°F12.8°C 80% 19.9 mph SW32.0 kmh SW 19.9 mph32.0 kmh 29.93 in1013.5 mb 0.00 in0.0 mm 0.00 in0.0 mm 0.00 in0.0 mm
02:39 AM 61.5°F16.4°C 55.0°F12.8°C 80% 19.9 mph SE32.0 kmh SE 19.9 mph32.0 kmh 29.92 in1013.2 mb 0.00 in0.0 mm 0.00 in0.0 mm 0.00 in0.0 mm
02:38 AM 61.5°F16.4°C 55.0°F12.8°C 80% 20.1 mph E32.3 kmh E 20.2 mph32.5 kmh 29.92 in1013.2 mb 0.00 in0.0 mm 0.00 in0.0 mm 0.00 in0.0 mm
02:37 AM 61.5°F16.4°C 56.0°F13.3°C 81% 21.2 mph SE34.1 kmh SE 21.9 mph35.2 kmh 29.92 in1013.2 mb 0.00 in0.0 mm 0.00 in0.0 mm 0.00 in0.0 mm
02:36 AM 61.3°F16.3°C 55.0°F12.8°C 81% 20.8 mph SE33.5 kmh SE 21.2 mph34.1 kmh 29.92 in1013.2 mb 0.00 in0.0 mm 0.00 in0.0 mm 0.00 in0.0 mm
02:35 AM 61.3°F16.3°C 56.0°F13.3°C 81% 20.3 mph S32.7 kmh S 20.6 mph33.2 kmh 29.92 in1013.2 mb 0.00 in0.0 mm 0.00 in0.0 mm 0.00 in0.0 mm
02:34 AM 61.3°F16.3°C 55.0°F12.8°C 80% 19.9 mph NE32.0 kmh NE 19.9 mph32.0 kmh 29.92 in1013.2 mb 0.00 in0.0 mm 0.00 in0.0 mm 0.00 in0.0 mm
02:33 AM 61.3°F16.3°C 55.0°F12.8°C 81% 20.7 mph E33.3 kmh E 21.1 mph34.0 kmh 29.92 in1013.2 mb 0.00 in0.0 mm 0.00 in0.0 mm 0.00 in0.0 mm
02:32 AM 61.3°F16.3°C 56.0°F13.3°C 82% 21.3 mph SE34.3 kmh SE 22.0 mph35.4 kmh 29.92 in1013.2 mb 0.00 in0.0 mm 0.00 in0.0 mm 0.00 in0.0 mm
02:31 AM 61.3°F16.3°C 55.0°F12.8°C 81% 21.4 mph SSE34.4 kmh SSE 22.3 mph35.9 kmh 29.92 in1013.2 mb 0.00 in0.0 mm 0.00 in0.0 mm 0.00 in0.0 mm
02:30 AM 61.3°F16.3°C 55.0°F12.8°C 81% 20.1 mph SE32.3 kmh SE 20.3 mph32.7 kmh 29.92 in1013.2 mb 0.00 in0.0 mm 0.00 in0.0 mm 0.00 in0.0 mm
02:29 AM 61.5°F16.4°C 55.0°F12.8°C 81% 19.9 mph NE32.0 kmh NE 19.9 mph32.0 kmh 29.93 in1013.5 mb 0.00 in0.0 mm 0.00 in0.0 mm 0.00 in0.0 mm
02:28 AM 61.5°F16.4°C 56.0°F13.3°C 81% 19.9 mph 32.0 kmh 19.9 mph32.0 kmh 29.93 in1013.5 mb 0.00 in0.0 mm 0.00 in0.0 mm 0.00 in0.0 mm
02:27 AM 61.5°F16.4°C 55.0°F12.8°C 80% 19.9 mph 32.0 kmh 19.9 mph32.0 kmh 29.93 in1013.5 mb 0.00 in0.0 mm 0.00 in0.0 mm 0.00 in0.0 mm
02:26 AM 61.5°F16.4°C 55.0°F12.8°C 80% 20.2 mph 32.5 kmh 20.4 mph32.8 kmh 29.93 in1013.5 mb 0.00 in0.0 mm 0.00 in0.0 mm 0.00 in0.0 mm
02:25 AM 61.5°F16.4°C 55.0°F12.8°C 80% 20.3 mph 32.7 kmh 20.6 mph33.2 kmh 29.93 in1013.5 mb 0.00 in0.0 mm 0.00 in0.0 mm 0.00 in0.0 mm
02:24 AM 61.7°F16.5°C 55.0°F12.8°C 80% 20.3 mph 32.7 kmh 20.6 mph33.2 kmh 29.93 in1013.5 mb 0.00 in0.0 mm 0.00 in0.0 mm 0.00 in0.0 mm
02:23 AM 61.7°F16.5°C 55.0°F12.8°C 79% 20.6 mph NE33.2 kmh NE 21.1 mph34.0 kmh 29.93 in1013.5 mb 0.00 in0.0 mm 0.00 in0.0 mm 0.00 in0.0 mm
02:22 AM 61.7°F16.5°C 55.0°F12.8°C 79% 20.2 mph 32.5 kmh 20.5 mph33.0 kmh 29.93 in1013.5 mb 0.00 in0.0 mm 0.00 in0.0 mm 0.00 in0.0 mm
02:21 AM 61.9°F16.6°C 55.0°F12.8°C 79% 21.3 mph SW34.3 kmh SW 22.1 mph35.6 kmh 29.93 in1013.5 mb 0.00 in0.0 mm 0.00 in0.0 mm 0.00 in0.0 mm
02:20 AM 61.9°F16.6°C 55.0°F12.8°C 78% 20.5 mph 33.0 kmh 20.8 mph33.5 kmh 29.93 in1013.5 mb 0.00 in0.0 mm 0.00 in0.0 mm 0.00 in0.0 mm
02:19 AM 62.1°F16.7°C 55.0°F12.8°C 78% 20.4 mph 32.8 kmh 20.6 mph33.2 kmh 29.93 in1013.5 mb 0.00 in0.0 mm 0.00 in0.0 mm 0.00 in0.0 mm
02:18 AM 62.1°F16.7°C 55.0°F12.8°C 78% 19.9 mph 32.0 kmh 19.9 mph32.0 kmh 29.93 in1013.5 mb 0.00 in0.0 mm 0.00 in0.0 mm 0.00 in0.0 mm
02:17 AM 62.1°F16.7°C 55.0°F12.8°C 78% 19.9 mph 32.0 kmh 19.9 mph32.0 kmh 29.93 in1013.5 mb 0.00 in0.0 mm 0.00 in0.0 mm 0.00 in0.0 mm
02:16 AM 62.1°F16.7°C 55.0°F12.8°C 78% 19.9 mph 32.0 kmh 19.9 mph32.0 kmh 29.93 in1013.5 mb 0.00 in0.0 mm 0.00 in0.0 mm 0.00 in0.0 mm
02:15 AM 62.1°F16.7°C 55.0°F12.8°C 76% 19.9 mph NNE32.0 kmh NNE 19.9 mph32.0 kmh 29.93 in1013.5 mb 0.00 in0.0 mm 0.00 in0.0 mm 0.00 in0.0 mm
02:14 AM 62.1°F16.7°C 55.0°F12.8°C 77% 19.9 mph N32.0 kmh N 19.9 mph32.0 kmh 29.92 in1013.2 mb 0.00 in0.0 mm 0.00 in0.0 mm 0.00 in0.0 mm
02:13 AM 62.1°F16.7°C 54.0°F12.2°C 76% 19.9 mph SE32.0 kmh SE 19.9 mph32.0 kmh 29.92 in1013.2 mb 0.00 in0.0 mm 0.00 in0.0 mm 0.00 in0.0 mm
02:12 AM 62.1°F16.7°C 54.0°F12.2°C 76% 19.9 mph SE32.0 kmh SE 19.9 mph32.0 kmh 29.92 in1013.2 mb 0.00 in0.0 mm 0.00 in0.0 mm 0.00 in0.0 mm
02:11 AM 62.1°F16.7°C 54.0°F12.2°C 76% 19.9 mph SE32.0 kmh SE 19.9 mph32.0 kmh 29.92 in1013.2 mb 0.00 in0.0 mm 0.00 in0.0 mm 0.00 in0.0 mm
02:10 AM 62.1°F16.7°C 54.0°F12.2°C 75% 19.9 mph SE32.0 kmh SE 19.9 mph32.0 kmh 29.92 in1013.2 mb 0.00 in0.0 mm 0.00 in0.0 mm 0.00 in0.0 mm
02:09 AM 61.9°F16.6°C 54.0°F12.2°C 76% 19.9 mph SE32.0 kmh SE 19.9 mph32.0 kmh 29.92 in1013.2 mb 0.00 in0.0 mm 0.00 in0.0 mm 0.00 in0.0 mm
02:08 AM 62.1°F16.7°C 55.0°F12.8°C 76% 19.9 mph SE32.0 kmh SE 19.9 mph32.0 kmh 29.92 in1013.2 mb 0.00 in0.0 mm 0.00 in0.0 mm 0.00 in0.0 mm
02:07 AM 61.9°F16.6°C 55.0°F12.8°C 77% 19.9 mph SE32.0 kmh SE 19.9 mph32.0 kmh 29.92 in1013.2 mb 0.00 in0.0 mm 0.00 in0.0 mm 0.00 in0.0 mm
02:06 AM 62.1°F16.7°C 55.0°F12.8°C 77% 20.6 mph SE33.2 kmh SE 21.0 mph33.8 kmh 29.92 in1013.2 mb 0.00 in0.0 mm 0.00 in0.0 mm 0.00 in0.0 mm
02:05 AM 62.1°F16.7°C 55.0°F12.8°C 77% 21.3 mph SE34.3 kmh SE 22.1 mph35.6 kmh 29.92 in1013.2 mb 0.00 in0.0 mm 0.00 in0.0 mm 0.00 in0.0 mm
02:04 AM 62.1°F16.7°C 55.0°F12.8°C 77% 21.2 mph SE34.1 kmh SE 21.9 mph35.2 kmh 29.92 in1013.2 mb 0.00 in0.0 mm 0.00 in0.0 mm 0.00 in0.0 mm
02:03 AM 62.1°F16.7°C 54.0°F12.2°C 76% 19.9 mph SE32.0 kmh SE 19.9 mph32.0 kmh 29.92 in1013.2 mb 0.00 in0.0 mm 0.00 in0.0 mm 0.00 in0.0 mm
02:02 AM 62.1°F16.7°C 54.0°F12.2°C 76% 20.3 mph SE32.7 kmh SE 20.5 mph33.0 kmh 29.92 in1013.2 mb 0.00 in0.0 mm 0.00 in0.0 mm 0.00 in0.0 mm
02:01 AM 62.1°F16.7°C 55.0°F12.8°C 76% 20.5 mph SE33.0 kmh SE 20.7 mph33.3 kmh 29.92 in1013.2 mb 0.00 in0.0 mm 0.00 in0.0 mm 0.00 in0.0 mm
02:00 AM 62.1°F16.7°C 55.0°F12.8°C 77% 20.7 mph SE33.3 kmh SE 21.2 mph34.1 kmh 29.92 in1013.2 mb 0.00 in0.0 mm 0.00 in0.0 mm 0.00 in0.0 mm
01:59 AM 62.1°F16.7°C 55.0°F12.8°C 77% 21.0 mph SE33.8 kmh SE 21.6 mph34.8 kmh 29.92 in1013.2 mb 0.00 in0.0 mm 0.00 in0.0 mm 0.00 in0.0 mm
01:58 AM 62.2°F16.8°C 54.0°F12.2°C 76% 21.0 mph SE33.8 kmh SE 21.6 mph34.8 kmh 29.92 in1013.2 mb 0.00 in0.0 mm 0.00 in0.0 mm 0.00 in0.0 mm
01:57 AM 62.2°F16.8°C 54.0°F12.2°C 76% 20.7 mph SE33.3 kmh SE 21.2 mph34.1 kmh 29.92 in1013.2 mb 0.00 in0.0 mm 0.00 in0.0 mm 0.00 in0.0 mm
01:56 AM 62.2°F16.8°C 54.0°F12.2°C 75% 20.4 mph SE32.8 kmh SE 20.8 mph33.5 kmh 29.92 in1013.2 mb 0.00 in0.0 mm 0.00 in0.0 mm 0.00 in0.0 mm
01:55 AM 62.2°F16.8°C 54.0°F12.2°C 74% 19.9 mph SE32.0 kmh SE 19.9 mph32.0 kmh 29.92 in1013.2 mb 0.00 in0.0 mm 0.00 in0.0 mm 0.00 in0.0 mm
01:54 AM 62.2°F16.8°C 54.0°F12.2°C 74% 19.9 mph SE32.0 kmh SE 19.9 mph32.0 kmh 29.92 in1013.2 mb 0.00 in0.0 mm 0.00 in0.0 mm 0.00 in0.0 mm
01:53 AM 62.2°F16.8°C 54.0°F12.2°C 75% 19.9 mph SE32.0 kmh SE 19.9 mph32.0 kmh 29.92 in1013.2 mb 0.00 in0.0 mm 0.00 in0.0 mm 0.00 in0.0 mm
01:52 AM 62.2°F16.8°C 54.0°F12.2°C 75% 19.9 mph SE32.0 kmh SE 19.9 mph32.0 kmh 29.92 in1013.2 mb 0.00 in0.0 mm 0.00 in0.0 mm 0.00 in0.0 mm
01:51 AM 62.4°F16.9°C 54.0°F12.2°C 74% 19.9 mph SE32.0 kmh SE 19.9 mph32.0 kmh 29.92 in1013.2 mb 0.00 in0.0 mm 0.00 in0.0 mm 0.00 in0.0 mm
01:50 AM 62.4°F16.9°C 54.0°F12.2°C 75% 19.9 mph SE32.0 kmh SE 19.9 mph32.0 kmh 29.92 in1013.2 mb 0.00 in0.0 mm 0.00 in0.0 mm 0.00 in0.0 mm
01:49 AM 62.4°F16.9°C 54.0°F12.2°C 74% 19.9 mph SE32.0 kmh SE 19.9 mph32.0 kmh 29.93 in1013.5 mb 0.00 in0.0 mm 0.00 in0.0 mm 0.00 in0.0 mm
01:48 AM 62.4°F16.9°C 54.0°F12.2°C 74% 19.9 mph SE32.0 kmh SE 19.9 mph32.0 kmh 29.93 in1013.5 mb 0.00 in0.0 mm 0.00 in0.0 mm 0.00 in0.0 mm
01:47 AM 62.4°F16.9°C 54.0°F12.2°C 74% 19.9 mph SE32.0 kmh SE 19.9 mph32.0 kmh 29.93 in1013.5 mb 0.00 in0.0 mm 0.00 in0.0 mm 0.00 in0.0 mm
01:46 AM 62.6°F17.0°C 54.0°F12.2°C 74% 19.9 mph SE32.0 kmh SE 19.9 mph32.0 kmh 29.92 in1013.2 mb 0.00 in0.0 mm 0.00 in0.0 mm 0.00 in0.0 mm
01:45 AM 62.6°F17.0°C 54.0°F12.2°C 73% 19.9 mph SE32.0 kmh SE 19.9 mph32.0 kmh 29.92 in1013.2 mb 0.00 in0.0 mm 0.00 in0.0 mm 0.00 in0.0 mm
01:44 AM 62.6°F17.0°C 54.0°F12.2°C 73% 19.9 mph SE32.0 kmh SE 19.9 mph32.0 kmh 29.92 in1013.2 mb 0.00 in0.0 mm 0.00 in0.0 mm 0.00 in0.0 mm
01:43 AM 62.6°F17.0°C 55.0°F12.8°C 77% 19.9 mph ENE32.0 kmh ENE 19.9 mph32.0 kmh 29.92 in1013.2 mb 0.00 in0.0 mm 0.00 in0.0 mm 0.00 in0.0 mm
01:42 AM 62.8°F17.1°C 55.0°F12.8°C 77% 20.6 mph NE33.2 kmh NE 21.0 mph33.8 kmh 29.92 in1013.2 mb 0.00 in0.0 mm 0.00 in0.0 mm 0.00 in0.0 mm
01:41 AM 62.8°F17.1°C 55.0°F12.8°C 75% 20.6 mph NE33.2 kmh NE 20.9 mph33.6 kmh 29.92 in1013.2 mb 0.00 in0.0 mm 0.00 in0.0 mm 0.00 in0.0 mm
01:40 AM 62.8°F17.1°C 54.0°F12.2°C 73% 20.8 mph ENE33.5 kmh ENE 21.4 mph34.4 kmh 29.92 in1013.2 mb 0.00 in0.0 mm 0.00 in0.0 mm 0.00 in0.0 mm
01:39 AM 62.6°F17.0°C 53.0°F11.7°C 72% 20.4 mph SE32.8 kmh SE 20.8 mph33.5 kmh 29.92 in1013.2 mb 0.00 in0.0 mm 0.00 in0.0 mm 0.00 in0.0 mm
01:38 AM 62.6°F17.0°C 53.0°F11.7°C 71% 20.2 mph SE32.5 kmh SE 20.4 mph32.8 kmh 29.92 in1013.2 mb 0.00 in0.0 mm 0.00 in0.0 mm 0.00 in0.0 mm
01:37 AM 62.4°F16.9°C 53.0°F11.7°C 71% 20.6 mph SE33.2 kmh SE 21.0 mph33.8 kmh 29.92 in1013.2 mb 0.00 in0.0 mm 0.00 in0.0 mm 0.00 in0.0 mm
01:36 AM 62.4°F16.9°C 53.0°F11.7°C 72% 19.9 mph NE32.0 kmh NE 19.9 mph32.0 kmh 29.92 in1013.2 mb 0.00 in0.0 mm 0.00 in0.0 mm 0.00 in0.0 mm
01:35 AM 62.2°F16.8°C 53.0°F11.7°C 73% 19.9 mph NE32.0 kmh NE 19.9 mph32.0 kmh 29.92 in1013.2 mb 0.00 in0.0 mm 0.00 in0.0 mm 0.00 in0.0 mm
01:34 AM 62.2°F16.8°C 53.0°F11.7°C 73% 19.9 mph N32.0 kmh N 19.9 mph32.0 kmh 29.92 in1013.2 mb 0.00 in0.0 mm 0.00 in0.0 mm 0.00 in0.0 mm
01:33 AM 62.2°F16.8°C 54.0°F12.2°C 74% 19.9 mph NE32.0 kmh NE 19.9 mph32.0 kmh 29.92 in1013.2 mb 0.00 in0.0 mm 0.00 in0.0 mm 0.00 in0.0 mm
01:32 AM 62.2°F16.8°C 53.0°F11.7°C 73% 20.0 mph NNE32.2 kmh NNE 20.0 mph32.2 kmh 29.92 in1013.2 mb 0.00 in0.0 mm 0.00 in0.0 mm 0.00 in0.0 mm
01:31 AM 62.4°F16.9°C 54.0°F12.2°C 74% 20.0 mph 32.2 kmh 20.0 mph32.2 kmh 29.92 in1013.2 mb 0.00 in0.0 mm 0.00 in0.0 mm 0.00 in0.0 mm
01:30 AM 62.4°F16.9°C 53.0°F11.7°C 72% 20.6 mph ENE33.2 kmh ENE 21.0 mph33.8 kmh 29.92 in1013.2 mb 0.00 in0.0 mm 0.00 in0.0 mm 0.00 in0.0 mm
01:29 AM 62.4°F16.9°C 53.0°F11.7°C 73% 21.4 mph NE34.4 kmh NE 22.2 mph35.7 kmh 29.92 in1013.2 mb 0.00 in0.0 mm 0.00 in0.0 mm 0.00 in0.0 mm
01:28 AM 62.6°F17.0°C 54.0°F12.2°C 73% 20.2 mph E32.5 kmh E 20.5 mph33.0 kmh 29.92 in1013.2 mb 0.00 in0.0 mm 0.00 in0.0 mm 0.00 in0.0 mm
01:27 AM 62.6°F17.0°C 53.0°F11.7°C 72% 20.6 mph NE33.2 kmh NE 21.0 mph33.8 kmh 29.92 in1013.2 mb 0.00 in0.0 mm 0.00 in0.0 mm 0.00 in0.0 mm
01:26 AM 62.6°F17.0°C 53.0°F11.7°C 72% 21.1 mph NNE34.0 kmh NNE 21.8 mph35.1 kmh 29.92 in1013.2 mb 0.00 in0.0 mm 0.00 in0.0 mm 0.00 in0.0 mm
01:25 AM 62.8°F17.1°C 53.0°F11.7°C 72% 21.4 mph NNE34.4 kmh NNE 22.3 mph35.9 kmh 29.92 in1013.2 mb 0.00 in0.0 mm 0.00 in0.0 mm 0.00 in0.0 mm
01:24 AM 62.8°F17.1°C 53.0°F11.7°C 71% 21.2 mph E34.1 kmh E 22.0 mph35.4 kmh 29.92 in1013.2 mb 0.00 in0.0 mm 0.00 in0.0 mm 0.00 in0.0 mm
01:23 AM 62.8°F17.1°C 54.0°F12.2°C 73% 22.1 mph NNE35.6 kmh NNE 23.3 mph37.5 kmh 29.92 in1013.2 mb 0.00 in0.0 mm 0.00 in0.0 mm 0.00 in0.0 mm
01:22 AM 62.8°F17.1°C 53.0°F11.7°C 71% 21.8 mph NNE35.1 kmh NNE 23.0 mph37.0 kmh 29.92 in1013.2 mb 0.00 in0.0 mm 0.00 in0.0 mm 0.00 in0.0 mm
01:21 AM 62.8°F17.1°C 53.0°F11.7°C 72% 21.5 mph ESE34.6 kmh ESE 22.5 mph36.2 kmh 29.92 in1013.2 mb 0.00 in0.0 mm 0.00 in0.0 mm 0.00 in0.0 mm
01:20 AM 62.8°F17.1°C 54.0°F12.2°C 72% 21.6 mph NNE34.8 kmh NNE 22.6 mph36.4 kmh 29.92 in1013.2 mb 0.00 in0.0 mm 0.00 in0.0 mm 0.00 in0.0 mm
01:19 AM 62.6°F17.0°C 53.0°F11.7°C 72% 21.6 mph NE34.8 kmh NE 22.6 mph36.4 kmh 29.92 in1013.2 mb 0.00 in0.0 mm 0.00 in0.0 mm 0.00 in0.0 mm
01:18 AM 62.6°F17.0°C 53.0°F11.7°C 72% 21.6 mph NE34.8 kmh NE 22.5 mph36.2 kmh 29.92 in1013.2 mb 0.00 in0.0 mm 0.00 in0.0 mm 0.00 in0.0 mm
01:17 AM 62.6°F17.0°C 54.0°F12.2°C 73% 21.5 mph NNE34.6 kmh NNE 22.4 mph36.0 kmh 29.92 in1013.2 mb 0.00 in0.0 mm 0.00 in0.0 mm 0.00 in0.0 mm
01:16 AM 62.4°F16.9°C 54.0°F12.2°C 73% 21.5 mph NNE34.6 kmh NNE 22.4 mph36.0 kmh 29.92 in1013.2 mb 0.00 in0.0 mm 0.00 in0.0 mm 0.00 in0.0 mm
01:15 AM 62.4°F16.9°C 54.0°F12.2°C 73% 21.9 mph NNE35.2 kmh NNE 23.0 mph37.0 kmh 29.92 in1013.2 mb 0.00 in0.0 mm 0.00 in0.0 mm 0.00 in0.0 mm
01:14 AM 62.4°F16.9°C 54.0°F12.2°C 74% 21.6 mph NNE34.8 kmh NNE 22.5 mph36.2 kmh 29.92 in1013.2 mb 0.00 in0.0 mm 0.00 in0.0 mm 0.00 in0.0 mm
01:13 AM 62.4°F16.9°C 54.0°F12.2°C 75% 21.6 mph NE34.8 kmh NE 22.4 mph36.0 kmh 29.92 in1013.2 mb 0.00 in0.0 mm 0.00 in0.0 mm 0.00 in0.0 mm
01:12 AM 62.4°F16.9°C 54.0°F12.2°C 75% 21.5 mph NNE34.6 kmh NNE 22.3 mph35.9 kmh 29.92 in1013.2 mb 0.00 in0.0 mm 0.00 in0.0 mm 0.00 in0.0 mm
01:11 AM 62.4°F16.9°C 55.0°F12.8°C 75% 21.5 mph ENE34.6 kmh ENE 22.3 mph35.9 kmh 29.92 in1013.2 mb 0.00 in0.0 mm 0.00 in0.0 mm 0.00 in0.0 mm
01:10 AM 62.4°F16.9°C 54.0°F12.2°C 75% 21.6 mph NE34.8 kmh NE 22.5 mph36.2 kmh 29.92 in1013.2 mb 0.00 in0.0 mm 0.00 in0.0 mm 0.00 in0.0 mm
01:09 AM 62.4°F16.9°C 54.0°F12.2°C 75% 22.0 mph NNE35.4 kmh NNE 23.2 mph37.3 kmh 29.92 in1013.2 mb 0.00 in0.0 mm 0.00 in0.0 mm 0.00 in0.0 mm
01:08 AM 62.4°F16.9°C 55.0°F12.8°C 75% 21.3 mph NNE34.3 kmh NNE 22.1 mph35.6 kmh 29.92 in1013.2 mb 0.00 in0.0 mm 0.00 in0.0 mm 0.00 in0.0 mm
01:07 AM 62.4°F16.9°C 54.0°F12.2°C 75% 22.1 mph NE35.6 kmh NE 23.5 mph37.8 kmh 29.92 in1013.2 mb 0.00 in0.0 mm 0.00 in0.0 mm 0.00 in0.0 mm
01:06 AM 62.4°F16.9°C 54.0°F12.2°C 75% 22.3 mph NE35.9 kmh NE 23.6 mph38.0 kmh 29.92 in1013.2 mb 0.00 in0.0 mm 0.00 in0.0 mm 0.00 in0.0 mm
01:05 AM 62.4°F16.9°C 54.0°F12.2°C 75% 21.7 mph NNE34.9 kmh NNE 22.7 mph36.5 kmh 29.92 in1013.2 mb 0.00 in0.0 mm 0.00 in0.0 mm 0.00 in0.0 mm
01:04 AM 62.4°F16.9°C 54.0°F12.2°C 75% 21.8 mph NNE35.1 kmh NNE 22.9 mph36.9 kmh 29.92 in1013.2 mb 0.00 in0.0 mm 0.00 in0.0 mm 0.00 in0.0 mm
01:03 AM 62.4°F16.9°C 54.0°F12.2°C 75% 22.2 mph NNE35.7 kmh NNE 23.5 mph37.8 kmh 29.92 in1013.2 mb 0.00 in0.0 mm 0.00 in0.0 mm 0.00 in0.0 mm
01:02 AM 62.4°F16.9°C 54.0°F12.2°C 75% 21.8 mph NNE35.1 kmh NNE 22.9 mph36.9 kmh 29.92 in1013.2 mb 0.00 in0.0 mm 0.00 in0.0 mm 0.00 in0.0 mm
01:01 AM 62.4°F16.9°C 54.0°F12.2°C 75% 21.8 mph NE35.1 kmh NE 22.9 mph36.9 kmh 29.92 in1013.2 mb 0.00 in0.0 mm 0.00 in0.0 mm 0.00 in0.0 mm
01:00 AM 62.4°F16.9°C 54.0°F12.2°C 75% 21.6 mph NNE34.8 kmh NNE 22.5 mph36.2 kmh 29.92 in1013.2 mb 0.00 in0.0 mm 0.00 in0.0 mm 0.00 in0.0 mm
12:59 AM 62.4°F16.9°C 54.0°F12.2°C 74% 22.3 mph NNE35.9 kmh NNE 23.6 mph38.0 kmh 29.92 in1013.2 mb 0.00 in0.0 mm 0.00 in0.0 mm 0.00 in0.0 mm
12:58 AM 62.6°F17.0°C 54.0°F12.2°C 74% 22.1 mph NNE35.6 kmh NNE 23.4 mph37.7 kmh 29.92 in1013.2 mb 0.00 in0.0 mm 0.00 in0.0 mm 0.00 in0.0 mm
12:57 AM 62.6°F17.0°C 54.0°F12.2°C 74% 22.0 mph NNE35.4 kmh NNE 23.1 mph37.2 kmh 29.92 in1013.2 mb 0.00 in0.0 mm 0.00 in0.0 mm 0.00 in0.0 mm
12:56 AM 62.6°F17.0°C 54.0°F12.2°C 74% 21.9 mph NNE35.2 kmh NNE 23.1 mph37.2 kmh 29.92 in1013.2 mb 0.00 in0.0 mm 0.00 in0.0 mm 0.00 in0.0 mm
12:55 AM 62.6°F17.0°C 54.0°F12.2°C 74% 22.2 mph NNE35.7 kmh NNE 23.6 mph38.0 kmh 29.92 in1013.2 mb 0.00 in0.0 mm 0.00 in0.0 mm 0.00 in0.0 mm
12:54 AM 62.6°F17.0°C 54.0°F12.2°C 75% 22.0 mph NE35.4 kmh NE 23.3 mph37.5 kmh 29.92 in1013.2 mb 0.00 in0.0 mm 0.00 in0.0 mm 0.00 in0.0 mm
12:53 AM 62.6°F17.0°C 54.0°F12.2°C 75% 21.9 mph NNE35.2 kmh NNE 23.0 mph37.0 kmh 29.92 in1013.2 mb 0.00 in0.0 mm 0.00 in0.0 mm 0.00 in0.0 mm
12:52 AM 62.4°F16.9°C 54.0°F12.2°C 75% 22.1 mph NE35.6 kmh NE 23.2 mph37.3 kmh 29.92 in1013.2 mb 0.00 in0.0 mm 0.00 in0.0 mm 0.00 in0.0 mm
12:51 AM 62.4°F16.9°C 55.0°F12.8°C 75% 22.2 mph NNE35.7 kmh NNE 23.5 mph37.8 kmh 29.92 in1013.2 mb 0.00 in0.0 mm 0.00 in0.0 mm 0.00 in0.0 mm
12:50 AM 62.4°F16.9°C 55.0°F12.8°C 76% 21.3 mph ENE34.3 kmh ENE 22.2 mph35.7 kmh 29.92 in1013.2 mb 0.00 in0.0 mm 0.00 in0.0 mm 0.00 in0.0 mm
12:49 AM 62.4°F16.9°C 55.0°F12.8°C 76% 21.8 mph NNE35.1 kmh NNE 22.9 mph36.9 kmh 29.92 in1013.2 mb 0.00 in0.0 mm 0.00 in0.0 mm 0.00 in0.0 mm
12:48 AM 62.4°F16.9°C 55.0°F12.8°C 77% 21.4 mph NNE34.4 kmh NNE 22.2 mph35.7 kmh 29.92 in1013.2 mb 0.00 in0.0 mm 0.00 in0.0 mm 0.00 in0.0 mm
12:47 AM 62.4°F16.9°C 55.0°F12.8°C 77% 21.3 mph N34.3 kmh N 22.0 mph35.4 kmh 29.92 in1013.2 mb 0.00 in0.0 mm 0.00 in0.0 mm 0.00 in0.0 mm
12:46 AM 62.6°F17.0°C 55.0°F12.8°C 77% 21.8 mph NE35.1 kmh NE 22.9 mph36.9 kmh 29.92 in1013.2 mb 0.00 in0.0 mm 0.00 in0.0 mm 0.00 in0.0 mm
12:45 AM 62.6°F17.0°C 55.0°F12.8°C 77% 21.8 mph NNE35.1 kmh NNE 22.9 mph36.9 kmh 29.92 in1013.2 mb 0.00 in0.0 mm 0.00 in0.0 mm 0.00 in0.0 mm
12:44 AM 62.8°F17.1°C 55.0°F12.8°C 77% 21.7 mph NNE34.9 kmh NNE 22.6 mph36.4 kmh 29.92 in1013.2 mb 0.00 in0.0 mm 0.00 in0.0 mm 0.00 in0.0 mm
12:43 AM 62.8°F17.1°C 55.0°F12.8°C 76% 21.9 mph N35.2 kmh N 23.0 mph37.0 kmh 29.93 in1013.5 mb 0.00 in0.0 mm 0.00 in0.0 mm 0.00 in0.0 mm
12:42 AM 62.8°F17.1°C 55.0°F12.8°C 77% 21.4 mph NNE34.4 kmh NNE 22.3 mph35.9 kmh 29.93 in1013.5 mb 0.00 in0.0 mm 0.00 in0.0 mm 0.00 in0.0 mm
12:41 AM 63.0°F17.2°C 55.0°F12.8°C 76% 22.0 mph NNE35.4 kmh NNE 23.3 mph37.5 kmh 29.93 in1013.5 mb 0.00 in0.0 mm 0.00 in0.0 mm 0.00 in0.0 mm
12:40 AM 63.0°F17.2°C 55.0°F12.8°C 76% 21.8 mph NNE35.1 kmh NNE 22.8 mph36.7 kmh 29.93 in1013.5 mb 0.00 in0.0 mm 0.00 in0.0 mm 0.00 in0.0 mm
12:39 AM 63.0°F17.2°C 55.0°F12.8°C 76% 21.8 mph NNE35.1 kmh NNE 22.9 mph36.9 kmh 29.93 in1013.5 mb 0.00 in0.0 mm 0.00 in0.0 mm 0.00 in0.0 mm
12:38 AM 63.1°F17.3°C 55.0°F12.8°C 76% 21.7 mph NNE34.9 kmh NNE 22.6 mph36.4 kmh 29.93 in1013.5 mb 0.00 in0.0 mm 0.00 in0.0 mm 0.00 in0.0 mm
12:37 AM 63.1°F17.3°C 55.0°F12.8°C 76% 22.0 mph NE35.4 kmh NE 23.1 mph37.2 kmh 29.93 in1013.5 mb 0.00 in0.0 mm 0.00 in0.0 mm 0.00 in0.0 mm
12:36 AM 63.3°F17.4°C 55.0°F12.8°C 76% 21.9 mph NE35.2 kmh NE 23.1 mph37.2 kmh 29.93 in1013.5 mb 0.00 in0.0 mm 0.00 in0.0 mm 0.00 in0.0 mm
12:35 AM 63.5°F17.5°C 55.0°F12.8°C 75% 22.0 mph N35.4 kmh N 23.1 mph37.2 kmh 29.93 in1013.5 mb 0.00 in0.0 mm 0.00 in0.0 mm 0.00 in0.0 mm
12:34 AM 63.5°F17.5°C 55.0°F12.8°C 75% 22.4 mph ENE36.0 kmh ENE 23.8 mph38.3 kmh 29.93 in1013.5 mb 0.00 in0.0 mm 0.00 in0.0 mm 0.00 in0.0 mm
12:33 AM 63.5°F17.5°C 55.0°F12.8°C 75% 22.5 mph NNE36.2 kmh NNE 24.0 mph38.6 kmh 29.93 in1013.5 mb 0.00 in0.0 mm 0.00 in0.0 mm 0.00 in0.0 mm
12:32 AM 63.5°F17.5°C 55.0°F12.8°C 74% 22.6 mph NE36.4 kmh NE 24.3 mph39.1 kmh 29.93 in1013.5 mb 0.00 in0.0 mm 0.00 in0.0 mm 0.00 in0.0 mm
12:31 AM 63.5°F17.5°C 55.0°F12.8°C 74% 22.3 mph NNE35.9 kmh NNE 23.7 mph38.1 kmh 29.93 in1013.5 mb 0.00 in0.0 mm 0.00 in0.0 mm 0.00 in0.0 mm
12:30 AM 63.5°F17.5°C 55.0°F12.8°C 74% 22.7 mph NNE36.5 kmh NNE 24.6 mph39.6 kmh 29.93 in1013.5 mb 0.00 in0.0 mm 0.00 in0.0 mm 0.00 in0.0 mm
12:29 AM 63.7°F17.6°C 56.0°F13.3°C 75% 23.0 mph NE37.0 kmh NE 25.0 mph40.2 kmh 29.93 in1013.5 mb 0.00 in0.0 mm 0.00 in0.0 mm 0.00 in0.0 mm
12:28 AM 63.7°F17.6°C 55.0°F12.8°C 74% 22.6 mph NE36.4 kmh NE 24.1 mph38.8 kmh 29.93 in1013.5 mb 0.00 in0.0 mm 0.00 in0.0 mm 0.00 in0.0 mm
12:27 AM 63.7°F17.6°C 55.0°F12.8°C 74% 23.7 mph NE38.1 kmh NE 26.4 mph42.5 kmh 29.93 in1013.5 mb 0.00 in0.0 mm 0.00 in0.0 mm 0.00 in0.0 mm
12:26 AM 63.9°F17.7°C 55.0°F12.8°C 74% 22.4 mph NNE36.0 kmh NNE 23.8 mph38.3 kmh 29.93 in1013.5 mb 0.00 in0.0 mm 0.00 in0.0 mm 0.00 in0.0 mm
12:25 AM 63.7°F17.6°C 55.0°F12.8°C 74% 22.9 mph NNE36.9 kmh NNE 24.7 mph39.8 kmh 29.93 in1013.5 mb 0.00 in0.0 mm 0.00 in0.0 mm 0.00 in0.0 mm
12:24 AM 63.9°F17.7°C 55.0°F12.8°C 74% 23.8 mph NNE38.3 kmh NNE 26.3 mph42.3 kmh 29.93 in1013.5 mb 0.00 in0.0 mm 0.00 in0.0 mm 0.00 in0.0 mm
12:23 AM 63.7°F17.6°C 55.0°F12.8°C 74% 23.9 mph NE38.5 kmh NE 26.9 mph43.3 kmh 29.93 in1013.5 mb 0.00 in0.0 mm 0.00 in0.0 mm 0.00 in0.0 mm
12:22 AM 63.5°F17.5°C 55.0°F12.8°C 74% 23.8 mph NE38.3 kmh NE 26.1 mph42.0 kmh 29.93 in1013.5 mb 0.00 in0.0 mm 0.00 in0.0 mm 0.00 in0.0 mm
12:21 AM 63.7°F17.6°C 55.0°F12.8°C 74% 23.8 mph NNE38.3 kmh NNE 26.2 mph42.2 kmh 29.93 in1013.5 mb 0.00 in0.0 mm 0.00 in0.0 mm 0.00 in0.0 mm
12:20 AM 63.5°F17.5°C 55.0°F12.8°C 75% 23.6 mph NE38.0 kmh NE 25.9 mph41.7 kmh 29.93 in1013.5 mb 0.00 in0.0 mm 0.00 in0.0 mm 0.00 in0.0 mm
12:19 AM 63.5°F17.5°C 56.0°F13.3°C 76% 23.2 mph NNE37.3 kmh NNE 25.3 mph40.7 kmh 29.93 in1013.5 mb 0.00 in0.0 mm 0.00 in0.0 mm 0.00 in0.0 mm
12:18 AM 63.5°F17.5°C 56.0°F13.3°C 76% 22.9 mph NE36.9 kmh NE 24.6 mph39.6 kmh 29.93 in1013.5 mb 0.00 in0.0 mm 0.00 in0.0 mm 0.00 in0.0 mm
12:17 AM 63.7°F17.6°C 56.0°F13.3°C 76% 23.0 mph NNE37.0 kmh NNE 24.9 mph40.1 kmh 29.93 in1013.5 mb 0.00 in0.0 mm 0.00 in0.0 mm 0.00 in0.0 mm
12:16 AM 63.7°F17.6°C 56.0°F13.3°C 76% 22.6 mph NE36.4 kmh NE 24.3 mph39.1 kmh 29.93 in1013.5 mb 0.00 in0.0 mm 0.00 in0.0 mm 0.00 in0.0 mm
12:15 AM 63.7°F17.6°C 56.0°F13.3°C 76% 22.6 mph NNE36.4 kmh NNE 24.4 mph39.3 kmh 29.93 in1013.5 mb 0.00 in0.0 mm 0.00 in0.0 mm 0.00 in0.0 mm
12:14 AM 63.9°F17.7°C 56.0°F13.3°C 75% 22.7 mph NNE36.5 kmh NNE 24.4 mph39.3 kmh 29.93 in1013.5 mb 0.00 in0.0 mm 0.00 in0.0 mm 0.00 in0.0 mm
12:13 AM 63.9°F17.7°C 56.0°F13.3°C 75% 23.2 mph NNE37.3 kmh NNE 25.1 mph40.4 kmh 29.93 in1013.5 mb 0.00 in0.0 mm 0.00 in0.0 mm 0.00 in0.0 mm
12:12 AM 63.9°F17.7°C 56.0°F13.3°C 75% 22.6 mph NE36.4 kmh NE 24.0 mph38.6 kmh 29.93 in1013.5 mb 0.00 in0.0 mm 0.00 in0.0 mm 0.00 in0.0 mm
12:11 AM 63.9°F17.7°C 55.0°F12.8°C 74% 22.9 mph NE36.9 kmh NE 24.7 mph39.8 kmh 29.94 in1013.9 mb 0.00 in0.0 mm 0.00 in0.0 mm 0.00 in0.0 mm
12:10 AM 63.9°F17.7°C 55.0°F12.8°C 73% 23.3 mph NNE37.5 kmh NNE 25.9 mph41.7 kmh 29.93 in1013.5 mb 0.00 in0.0 mm 0.00 in0.0 mm 0.00 in0.0 mm
12:09 AM 63.7°F17.6°C 55.0°F12.8°C 74% 24.8 mph NNE39.9 kmh NNE 28.6 mph46.0 kmh 29.94 in1013.9 mb 0.00 in0.0 mm 0.00 in0.0 mm 0.00 in0.0 mm
12:08 AM 63.7°F17.6°C 56.0°F13.3°C 75% 23.1 mph NNE37.2 kmh NNE 25.0 mph40.2 kmh 29.94 in1013.9 mb 0.00 in0.0 mm 0.00 in0.0 mm 0.00 in0.0 mm
12:07 AM 63.7°F17.6°C 55.0°F12.8°C 75% 23.0 mph NE37.0 kmh NE 25.0 mph40.2 kmh 29.93 in1013.5 mb 0.00 in0.0 mm 0.00 in0.0 mm 0.00 in0.0 mm
12:06 AM 63.7°F17.6°C 55.0°F12.8°C 75% 23.2 mph NE37.3 kmh NE 25.1 mph40.4 kmh 29.94 in1013.9 mb 0.00 in0.0 mm 0.00 in0.0 mm 0.00 in0.0 mm
12:05 AM 63.9°F17.7°C 56.0°F13.3°C 75% 22.4 mph NNE36.0 kmh NNE 24.0 mph38.6 kmh 29.94 in1013.9 mb 0.00 in0.0 mm 0.00 in0.0 mm 0.00 in0.0 mm
12:04 AM 63.7°F17.6°C 55.0°F12.8°C 74% 23.2 mph NNE37.3 kmh NNE 25.4 mph40.9 kmh 29.94 in1013.9 mb 0.00 in0.0 mm 0.00 in0.0 mm 0.00 in0.0 mm
12:03 AM 63.7°F17.6°C 55.0°F12.8°C 74% 22.7 mph NNE36.5 kmh NNE 24.4 mph39.3 kmh 29.93 in1013.5 mb 0.00 in0.0 mm 0.00 in0.0 mm 0.00 in0.0 mm
12:02 AM 63.5°F17.5°C 55.0°F12.8°C 74% 22.7 mph NE36.5 kmh NE 24.5 mph39.4 kmh 29.93 in1013.5 mb 0.00 in0.0 mm 0.00 in0.0 mm 0.00 in0.0 mm
12:01 AM 63.5°F17.5°C 55.0°F12.8°C 75% 22.4 mph NNE36.0 kmh NNE 24.0 mph38.6 kmh 29.94 in1013.9 mb 0.00 in0.0 mm 0.00 in0.0 mm 0.00 in0.0 mm
12:00 AM 63.3°F17.4°C 55.0°F12.8°C 75% 22.6 mph NE36.4 kmh NE 24.3 mph39.1 kmh 29.94 in1013.9 mb 0.00 in0.0 mm 0.00 in0.0 mm 0.00 in0.0 mm